Wetterdaten: Samstag, 22.01.2022
Datum Zeit Temp. Aussen Temp. o. S. Temp +5cm Feuchte Auss Luftdruck Regen Sonnenschein Regendauer Solar Windben Empfang
22.01.2022 00:00 3,7 C 3,3 C 2,2 C 97 % 1033,4 hPa 0,0 l/m 0 min 0 min 0 W/m 12,9 km/h (3 Bft) 97,92 %
22.01.2022 00:02 3,7 C 3,3 C 2,2 C 97 % 1033,3 hPa 0,0 l/m 0 min 0 min 0 W/m 16,1 km/h (3 Bft) 97,50 %
22.01.2022 00:04 3,7 C 3,3 C 2,2 C 97 % 1033,4 hPa 0,0 l/m 0 min 0 min 0 W/m 12,9 km/h (3 Bft) 95,83 %
22.01.2022 00:08 3,7 C 3,3 C 2,2 C 97 % 1033,3 hPa 0,0 l/m 0 min 0 min 0 W/m 12,9 km/h (3 Bft) 97,87 %
22.01.2022 00:10 3,7 C 3,3 C 2,2 C 97 % 1033,4 hPa 0,0 l/m 0 min 0 min 0 W/m 16,1 km/h (3 Bft) 97,87 %
22.01.2022 00:12 3,7 C 3,3 C 2,2 C 97 % 1033,4 hPa 0,0 l/m 0 min 0 min 0 W/m 12,9 km/h (3 Bft) 97,56 %
22.01.2022 00:14 3,7 C 3,3 C 2,2 C 97 % 1033,4 hPa 0,0 l/m 0 min 0 min 0 W/m 19,3 km/h (3 Bft) 95,74 %
22.01.2022 00:16 3,7 C 3,3 C 2,2 C 97 % 1033,4 hPa 0,0 l/m 0 min 0 min 0 W/m 12,9 km/h (3 Bft) 95,83 %
22.01.2022 00:18 3,7 C 3,3 C 2,2 C 97 % 1033,5 hPa 0,0 l/m 0 min 0 min 0 W/m 12,9 km/h (3 Bft) 97,92 %
22.01.2022 00:20 3,7 C 3,3 C 2,2 C 97 % 1033,5 hPa 0,0 l/m 0 min 0 min 0 W/m 12,9 km/h (3 Bft) 97,83 %
22.01.2022 00:22 3,7 C 3,3 C 2,2 C 97 % 1033,4 hPa 0,0 l/m 0 min 0 min 0 W/m 16,1 km/h (3 Bft) 95,74 %
22.01.2022 00:24 3,7 C 3,3 C 2,2 C 97 % 1033,4 hPa 0,0 l/m 0 min 0 min 0 W/m 16,1 km/h (3 Bft) 100,00 %
22.01.2022 00:26 3,7 C 3,3 C 2,2 C 97 % 1033,4 hPa 0,0 l/m 0 min 0 min 0 W/m 12,9 km/h (3 Bft) 100,00 %
22.01.2022 00:28 3,7 C 3,3 C 2,2 C 97 % 1033,5 hPa 0,0 l/m 0 min 0 min 0 W/m 19,3 km/h (3 Bft) 100,00 %
22.01.2022 00:30 3,7 C 3,3 C 2,2 C 97 % 1033,4 hPa 0,0 l/m 0 min 0 min 0 W/m 12,9 km/h (3 Bft) 100,00 %
22.01.2022 00:32 3,7 C 3,3 C 2,2 C 97 % 1033,5 hPa 0,0 l/m 0 min 0 min 0 W/m 16,1 km/h (3 Bft) 100,00 %
22.01.2022 00:34 3,7 C 3,3 C 2,2 C 97 % 1033,4 hPa 0,0 l/m 0 min 0 min 0 W/m 19,3 km/h (3 Bft) 97,87 %
22.01.2022 00:36 3,7 C 3,3 C 2,2 C 97 % 1033,4 hPa 0,0 l/m 0 min 0 min 0 W/m 16,1 km/h (3 Bft) 97,87 %
22.01.2022 00:38 3,7 C 3,3 C 2,2 C 97 % 1033,4 hPa 0,0 l/m 0 min 0 min 0 W/m 22,5 km/h (4 Bft) 100,00 %
22.01.2022 00:40 3,7 C 3,3 C 2,2 C 97 % 1033,5 hPa 0,0 l/m 0 min 0 min 0 W/m 19,3 km/h (3 Bft) 100,00 %
22.01.2022 00:42 3,7 C 3,3 C 2,2 C 97 % 1033,4 hPa 0,0 l/m 0 min 0 min 0 W/m 12,9 km/h (3 Bft) 100,00 %
22.01.2022 00:44 3,7 C 3,3 C 2,2 C 97 % 1033,4 hPa 0,0 l/m 0 min 0 min 0 W/m 16,1 km/h (3 Bft) 100,00 %
22.01.2022 00:46 3,7 C 3,3 C 2,2 C 97 % 1033,3 hPa 0,0 l/m 0 min 0 min 0 W/m 16,1 km/h (3 Bft) 100,00 %
22.01.2022 00:48 3,7 C 3,3 C 2,2 C 97 % 1033,3 hPa 0,0 l/m 0 min 0 min 0 W/m 19,3 km/h (3 Bft) 59,18 %
22.01.2022 00:50 3,7 C 3,3 C 2,2 C 97 % 1033,2 hPa 0,0 l/m 0 min 0 min 0 W/m 12,9 km/h (3 Bft) 100,00 %
22.01.2022 00:52 3,7 C 3,3 C 2,2 C 97 % 1033,2 hPa 0,0 l/m 0 min 0 min 0 W/m 12,9 km/h (3 Bft) 95,74 %
22.01.2022 00:54 3,7 C 3,3 C 2,2 C 97 % 1033,1 hPa 0,0 l/m 0 min 0 min 0 W/m 19,3 km/h (3 Bft) 100,00 %
22.01.2022 00:56 3,7 C 3,3 C 2,2 C 97 % 1033,2 hPa 0,0 l/m 0 min 0 min 0 W/m 19,3 km/h (3 Bft) 100,00 %
22.01.2022 00:58 3,7 C 3,3 C 2,2 C 97 % 1033,3 hPa 0,0 l/m 0 min 0 min 0 W/m 12,9 km/h (3 Bft) 100,00 %
22.01.2022 01:00 3,7 C 3,3 C 2,2 C 97 % 1033,3 hPa 0,0 l/m 0 min 0 min 0 W/m 16,1 km/h (3 Bft) 100,00 %
22.01.2022 01:02 3,7 C 3,3 C 2,2 C 97 % 1033,3 hPa 0,0 l/m 0 min 0 min 0 W/m 16,1 km/h (3 Bft) 97,96 %
22.01.2022 01:04 3,7 C 3,3 C 2,2 C 97 % 1033,3 hPa 0,0 l/m 0 min 0 min 0 W/m 9,7 km/h (2 Bft) 100,00 %
22.01.2022 01:06 3,7 C 3,3 C 2,2 C 97 % 1033,3 hPa 0,0 l/m 0 min 0 min 0 W/m 16,1 km/h (3 Bft) 100,00 %
22.01.2022 01:08 3,7 C 3,3 C 2,2 C 97 % 1033,3 hPa 0,0 l/m 0 min 0 min 0 W/m 16,1 km/h (3 Bft) 100,00 %
22.01.2022 01:10 3,7 C 3,3 C 2,2 C 97 % 1033,3 hPa 0,0 l/m 0 min 0 min 0 W/m 12,9 km/h (3 Bft) 97,92 %
22.01.2022 01:12 3,7 C 3,3 C 2,2 C 97 % 1033,3 hPa 0,0 l/m 0 min 0 min 0 W/m 9,7 km/h (2 Bft) 100,00 %
22.01.2022 01:14 3,7 C 3,3 C 2,2 C 97 % 1033,3 hPa 0,0 l/m 0 min 0 min 0 W/m 9,7 km/h (2 Bft) 100,00 %
22.01.2022 01:16 3,7 C 3,3 C 2,2 C 97 % 1033,2 hPa 0,0 l/m 0 min 0 min 0 W/m 12,9 km/h (3 Bft) 97,83 %
22.01.2022 01:18 3,7 C 3,3 C 2,2 C 97 % 1033,3 hPa 0,0 l/m 0 min 0 min 0 W/m 12,9 km/h (3 Bft) 97,22 %
22.01.2022 01:20 3,7 C 3,3 C 2,2 C 97 % 1033,3 hPa 0,0 l/m 0 min 0 min 0 W/m 9,7 km/h (2 Bft) 97,83 %
22.01.2022 01:22 3,7 C 3,3 C 2,2 C 97 % 1033,4 hPa 0,0 l/m 0 min 0 min 0 W/m 9,7 km/h (2 Bft) 97,87 %
22.01.2022 01:24 3,7 C 3,3 C 2,2 C 97 % 1033,4 hPa 0,0 l/m 0 min 0 min 0 W/m 9,7 km/h (2 Bft) 95,74 %
22.01.2022 01:26 3,7 C 3,3 C 2,2 C 97 % 1033,4 hPa 0,0 l/m 0 min 0 min 0 W/m 6,4 km/h (2 Bft) 95,74 %
22.01.2022 01:28 3,7 C 3,3 C 2,2 C 97 % 1033,4 hPa 0,0 l/m 0 min 0 min 0 W/m 16,1 km/h (3 Bft) 95,74 %
22.01.2022 01:30 3,7 C 3,3 C 2,2 C 97 % 1033,4 hPa 0,0 l/m 0 min 0 min 0 W/m 12,9 km/h (3 Bft) 93,48 %
22.01.2022 01:32 3,7 C 3,3 C 2,2 C 97 % 1033,3 hPa 0,0 l/m 0 min 0 min 0 W/m 12,9 km/h (3 Bft) 96,30 %
22.01.2022 01:34 3,7 C 3,3 C 2,2 C 97 % 1033,4 hPa 0,0 l/m 0 min 0 min 0 W/m 12,9 km/h (3 Bft) 95,83 %
22.01.2022 01:36 3,7 C 3,3 C 2,2 C 97 % 1033,4 hPa 0,0 l/m 0 min 0 min 0 W/m 12,9 km/h (3 Bft) 95,74 %
22.01.2022 01:38 3,7 C 3,3 C 2,2 C 97 % 1033,4 hPa 0,0 l/m 0 min 0 min 0 W/m 16,1 km/h (3 Bft) 92,00 %
22.01.2022 01:40 3,7 C 3,3 C 2,2 C 97 % 1033,4 hPa 0,0 l/m 0 min 0 min 0 W/m 16,1 km/h (3 Bft) 97,22 %
22.01.2022 01:42 3,7 C 3,3 C 2,2 C 97 % 1033,4 hPa 0,0 l/m 0 min 0 min 0 W/m 12,9 km/h (3 Bft) 95,65 %
22.01.2022 01:44 3,7 C 3,3 C 2,2 C 97 % 1033,3 hPa 0,0 l/m 0 min 0 min 0 W/m 12,9 km/h (3 Bft) 91,49 %
22.01.2022 01:46 3,7 C 3,3 C 2,2 C 97 % 1033,4 hPa 0,0 l/m 0 min 0 min 0 W/m 12,9 km/h (3 Bft) 93,62 %
22.01.2022 01:48 3,7 C 3,3 C 2,2 C 97 % 1033,4 hPa 0,0 l/m 0 min 0 min 0 W/m 16,1 km/h (3 Bft) 92,45 %
22.01.2022 01:50 3,7 C 3,3 C 2,2 C 97 % 1033,4 hPa 0,0 l/m 0 min 0 min 0 W/m 12,9 km/h (3 Bft) 95,74 %
22.01.2022 01:52 3,7 C 3,3 C 2,2 C 97 % 1033,4 hPa 0,0 l/m 0 min 0 min 0 W/m 19,3 km/h (3 Bft) 97,83 %
22.01.2022 01:54 3,7 C 3,3 C 2,2 C 97 % 1033,4 hPa 0,0 l/m 0 min 0 min 0 W/m 12,9 km/h (3 Bft) 97,92 %
22.01.2022 01:56 3,7 C 3,3 C 2,2 C 97 % 1033,4 hPa 0,0 l/m 0 min 0 min 0 W/m 6,4 km/h (2 Bft) 95,74 %
22.01.2022 01:58 3,7 C 3,3 C 2,2 C 97 % 1033,5 hPa 0,0 l/m 0 min 0 min 0 W/m 6,4 km/h (2 Bft) 97,92 %
22.01.2022 02:00 3,7 C 3,3 C 2,2 C 97 % 1033,5 hPa 0,0 l/m 0 min 0 min 0 W/m 6,4 km/h (2 Bft) 97,92 %
22.01.2022 02:02 3,7 C 3,3 C 2,2 C 97 % 1033,4 hPa 0,0 l/m 0 min 0 min 0 W/m 12,9 km/h (3 Bft) 95,83 %
22.01.2022 02:04 3,7 C 3,3 C 2,2 C 97 % 1033,4 hPa 0,0 l/m 0 min 0 min 0 W/m 6,4 km/h (2 Bft) 97,30 %
22.01.2022 02:06 3,7 C 3,3 C 2,2 C 97 % 1033,3 hPa 0,0 l/m 0 min 0 min 0 W/m 12,9 km/h (3 Bft) 95,65 %
22.01.2022 02:08 3,7 C 3,3 C 2,2 C 97 % 1033,3 hPa 0,0 l/m 0 min 0 min 0 W/m 12,9 km/h (3 Bft) 97,87 %
22.01.2022 02:10 3,7 C 3,3 C 2,2 C 97 % 1033,4 hPa 0,0 l/m 0 min 0 min 0 W/m 12,9 km/h (3 Bft) 97,87 %
22.01.2022 02:12 3,7 C 3,3 C 2,2 C 97 % 1033,3 hPa 0,0 l/m 0 min 0 min 0 W/m 12,9 km/h (3 Bft) 96,36 %
22.01.2022 02:14 3,7 C 2,8 C 2,2 C 97 % 1033,3 hPa 0,0 l/m 0 min 0 min 0 W/m 12,9 km/h (3 Bft) 100,00 %
22.01.2022 02:16 3,7 C 2,8 C 2,2 C 97 % 1033,3 hPa 0,0 l/m 0 min 2 min 0 W/m 12,9 km/h (3 Bft) 97,83 %
22.01.2022 02:18 3,7 C 2,8 C 2,2 C 97 % 1033,3 hPa 0,0 l/m 0 min 2 min 0 W/m 9,7 km/h (2 Bft) 93,62 %
22.01.2022 02:20 3,7 C 2,8 C 1,7 C 97 % 1033,2 hPa 0,0 l/m 0 min 2 min 0 W/m 16,1 km/h (3 Bft) 97,87 %
22.01.2022 02:22 3,6 C 2,8 C 1,7 C 97 % 1033,2 hPa 0,0 l/m 0 min 0 min 0 W/m 16,1 km/h (3 Bft) 97,87 %
22.01.2022 02:24 3,6 C 2,8 C 1,7 C 97 % 1033,2 hPa 0,0 l/m 0 min 0 min 0 W/m 9,7 km/h (2 Bft) 95,83 %
22.01.2022 02:26 3,6 C 2,8 C 1,7 C 97 % 1033,2 hPa 0,0 l/m 0 min 0 min 0 W/m 16,1 km/h (3 Bft) 93,48 %
22.01.2022 02:28 3,6 C 2,8 C 1,7 C 97 % 1033,2 hPa 0,0 l/m 0 min 0 min 0 W/m 9,7 km/h (2 Bft) 97,87 %
22.01.2022 02:30 3,6 C 2,8 C 1,7 C 97 % 1033,3 hPa 0,0 l/m 0 min 0 min 0 W/m 12,9 km/h (3 Bft) 97,92 %
22.01.2022 02:32 3,6 C 2,8 C 1,7 C 97 % 1033,3 hPa 0,0 l/m 0 min 0 min 0 W/m 16,1 km/h (3 Bft) 97,22 %
22.01.2022 02:34 3,6 C 2,8 C 1,7 C 97 % 1033,3 hPa 0,0 l/m 0 min 0 min 0 W/m 9,7 km/h (2 Bft) 97,87 %
22.01.2022 02:36 3,6 C 2,8 C 1,7 C 97 % 1033,3 hPa 0,0 l/m 0 min 0 min 0 W/m 12,9 km/h (3 Bft) 97,87 %
22.01.2022 02:38 3,6 C 2,8 C 1,7 C 97 % 1033,3 hPa 0,0 l/m 0 min 0 min 0 W/m 12,9 km/h (3 Bft) 97,87 %
22.01.2022 02:40 3,6 C 2,8 C 1,7 C 97 % 1033,3 hPa 0,0 l/m 0 min 0 min 0 W/m 19,3 km/h (3 Bft) 97,83 %
22.01.2022 02:42 3,6 C 2,8 C 2,2 C 97 % 1033,4 hPa 0,0 l/m 0 min 0 min 0 W/m 16,1 km/h (3 Bft) 97,87 %
22.01.2022 02:44 3,6 C 2,8 C 2,2 C 97 % 1033,4 hPa 0,0 l/m 0 min 0 min 0 W/m 16,1 km/h (3 Bft) 98,15 %
22.01.2022 02:46 3,6 C 2,8 C 2,2 C 97 % 1033,4 hPa 0,0 l/m 0 min 0 min 0 W/m 6,4 km/h (2 Bft) 58,33 %
22.01.2022 02:48 3,6 C 2,8 C 2,2 C 97 % 1033,3 hPa 0,0 l/m 0 min 0 min 0 W/m 16,1 km/h (3 Bft) 95,65 %
22.01.2022 02:50 3,6 C 2,8 C 2,2 C 97 % 1033,3 hPa 0,0 l/m 0 min 0 min 0 W/m 12,9 km/h (3 Bft) 97,87 %
22.01.2022 02:52 3,6 C 2,8 C 2,2 C 97 % 1033,3 hPa 0,0 l/m 0 min 0 min 0 W/m 9,7 km/h (2 Bft) 97,92 %
22.01.2022 02:54 3,6 C 2,8 C 2,2 C 97 % 1033,4 hPa 0,0 l/m 0 min 0 min 0 W/m 16,1 km/h (3 Bft) 97,22 %
22.01.2022 02:56 3,6 C 2,8 C 2,2 C 97 % 1033,3 hPa 0,0 l/m 0 min 0 min 0 W/m 6,4 km/h (2 Bft) 97,87 %
22.01.2022 02:58 3,6 C 2,8 C 2,2 C 97 % 1033,3 hPa 0,0 l/m 0 min 0 min 0 W/m 9,7 km/h (2 Bft) 97,87 %
22.01.2022 03:00 3,6 C 2,8 C 2,2 C 97 % 1033,3 hPa 0,0 l/m 0 min 0 min 0 W/m 6,4 km/h (2 Bft) 97,87 %
22.01.2022 03:02 3,6 C 2,8 C 2,2 C 97 % 1033,2 hPa 0,0 l/m 0 min 0 min 0 W/m 12,9 km/h (3 Bft) 100,00 %
22.01.2022 03:04 3,6 C 2,8 C 2,2 C 97 % 1033,2 hPa 0,0 l/m 0 min 0 min 0 W/m 9,7 km/h (2 Bft) 97,83 %
22.01.2022 03:06 3,6 C 2,8 C 2,2 C 98 % 1033,2 hPa 0,0 l/m 0 min 0 min 0 W/m 16,1 km/h (3 Bft) 100,00 %
22.01.2022 03:08 3,6 C 3,3 C 2,2 C 98 % 1033,2 hPa 0,0 l/m 0 min 0 min 0 W/m 12,9 km/h (3 Bft) 100,00 %
22.01.2022 03:10 3,6 C 3,3 C 2,2 C 98 % 1033,3 hPa 0,0 l/m 0 min 0 min 0 W/m 6,4 km/h (2 Bft) 100,00 %
22.01.2022 03:12 3,6 C 3,3 C 2,2 C 98 % 1033,3 hPa 0,0 l/m 0 min 0 min 0 W/m 19,3 km/h (3 Bft) 100,00 %
22.01.2022 03:14 3,6 C 3,3 C 2,2 C 98 % 1033,3 hPa 0,0 l/m 0 min 0 min 0 W/m 12,9 km/h (3 Bft) 97,83 %
22.01.2022 03:16 3,7 C 3,3 C 2,2 C 98 % 1033,4 hPa 0,0 l/m 0 min 0 min 0 W/m 16,1 km/h (3 Bft) 95,74 %
22.01.2022 03:18 3,7 C 3,3 C 2,2 C 98 % 1033,4 hPa 0,0 l/m 0 min 0 min 0 W/m 6,4 km/h (2 Bft) 97,87 %
22.01.2022 03:20 3,7 C 3,3 C 2,2 C 98 % 1033,4 hPa 0,0 l/m 0 min 0 min 0 W/m 12,9 km/h (3 Bft) 95,83 %
22.01.2022 03:22 3,7 C 3,3 C 2,2 C 98 % 1033,3 hPa 0,0 l/m 0 min 0 min 0 W/m 9,7 km/h (2 Bft) 97,87 %
22.01.2022 03:24 3,7 C 3,3 C 2,2 C 98 % 1033,3 hPa 0,0 l/m 0 min 0 min 0 W/m 0,0 km/h (0 Bft) 97,87 %
22.01.2022 03:26 3,7 C 3,3 C 2,2 C 98 % 1033,3 hPa 0,0 l/m 0 min 0 min 0 W/m 9,7 km/h (2 Bft) 95,65 %
22.01.2022 03:28 3,7 C 3,3 C 2,2 C 98 % 1033,3 hPa 0,0 l/m 0 min 0 min 0 W/m 12,9 km/h (3 Bft) 97,92 %
22.01.2022 03:30 3,7 C 3,3 C 2,2 C 98 % 1033,3 hPa 0,0 l/m 0 min 0 min 0 W/m 6,4 km/h (2 Bft) 97,87 %
22.01.2022 03:32 3,7 C 3,3 C 2,2 C 98 % 1033,3 hPa 0,0 l/m 0 min 0 min 0 W/m 9,7 km/h (2 Bft) 97,92 %
22.01.2022 03:34 3,7 C 3,3 C 2,2 C 98 % 1033,3 hPa 0,0 l/m 0 min 0 min 0 W/m 12,9 km/h (3 Bft) 97,87 %
22.01.2022 03:36 3,7 C 3,3 C 2,2 C 98 % 1033,2 hPa 0,0 l/m 0 min 0 min 0 W/m 12,9 km/h (3 Bft) 97,22 %
22.01.2022 03:38 3,7 C 3,3 C 2,2 C 98 % 1033,2 hPa 0,0 l/m 0 min 0 min 0 W/m 9,7 km/h (2 Bft) 97,87 %
22.01.2022 03:40 3,7 C 3,3 C 2,2 C 98 % 1033,1 hPa 0,0 l/m 0 min 0 min 0 W/m 12,9 km/h (3 Bft) 97,83 %
22.01.2022 03:42 3,7 C 3,3 C 2,2 C 98 % 1033,2 hPa 0,0 l/m 0 min 0 min 0 W/m 12,9 km/h (3 Bft) 97,87 %
22.01.2022 03:44 3,7 C 3,3 C 2,2 C 98 % 1033,2 hPa 0,0 l/m 0 min 0 min 0 W/m 12,9 km/h (3 Bft) 97,87 %
22.01.2022 03:46 3,7 C 3,3 C 2,2 C 98 % 1033,2 hPa 0,0 l/m 0 min 0 min 0 W/m 9,7 km/h (2 Bft) 53,49 %
22.01.2022 03:48 3,7 C 3,3 C 2,2 C 98 % 1033,2 hPa 0,0 l/m 0 min 0 min 0 W/m 12,9 km/h (3 Bft) 100,00 %
22.01.2022 03:50 3,7 C 3,3 C 2,2 C 98 % 1033,1 hPa 0,0 l/m 0 min 0 min 0 W/m 12,9 km/h (3 Bft) 100,00 %
22.01.2022 03:52 3,7 C 3,3 C 2,2 C 98 % 1033,1 hPa 0,0 l/m 0 min 0 min 0 W/m 12,9 km/h (3 Bft) 100,00 %
22.01.2022 03:54 3,7 C 3,3 C 2,2 C 98 % 1033,1 hPa 0,0 l/m 0 min 0 min 0 W/m 12,9 km/h (3 Bft) 100,00 %
22.01.2022 03:56 3,7 C 3,3 C 2,2 C 98 % 1033,1 hPa 0,0 l/m 0 min 0 min 0 W/m 16,1 km/h (3 Bft) 100,00 %
22.01.2022 03:58 3,7 C 3,3 C 2,2 C 98 % 1033,2 hPa 0,0 l/m 0 min 0 min 0 W/m 16,1 km/h (3 Bft) 98,15 %
22.01.2022 04:00 3,7 C 3,3 C 2,2 C 98 % 1033,1 hPa 0,0 l/m 0 min 0 min 0 W/m 12,9 km/h (3 Bft) 100,00 %
22.01.2022 04:02 3,7 C 3,3 C 2,2 C 98 % 1033,1 hPa 0,0 l/m 0 min 0 min 0 W/m 16,1 km/h (3 Bft) 100,00 %
22.01.2022 04:04 3,7 C 3,3 C 2,2 C 98 % 1033,1 hPa 0,0 l/m 0 min 0 min 0 W/m 9,7 km/h (2 Bft) 91,67 %
22.01.2022 04:06 3,7 C 3,3 C 2,2 C 98 % 1033,2 hPa 0,0 l/m 0 min 0 min 0 W/m 19,3 km/h (3 Bft) 97,87 %
22.01.2022 04:08 3,7 C 3,3 C 2,2 C 98 % 1033,1 hPa 0,0 l/m 0 min 0 min 0 W/m 12,9 km/h (3 Bft) 95,74 %
22.01.2022 04:10 3,7 C 3,3 C 2,2 C 98 % 1033,1 hPa 0,0 l/m 0 min 0 min 0 W/m 16,1 km/h (3 Bft) 100,00 %
22.01.2022 04:12 3,7 C 3,3 C 2,2 C 98 % 1033,1 hPa 0,0 l/m 0 min 0 min 0 W/m 12,9 km/h (3 Bft) 97,92 %
22.01.2022 04:14 3,7 C 3,3 C 2,2 C 98 % 1033,1 hPa 0,0 l/m 0 min 0 min 0 W/m 9,7 km/h (2 Bft) 100,00 %
22.01.2022 04:16 3,7 C 3,3 C 2,2 C 98 % 1033,1 hPa 0,0 l/m 0 min 0 min 0 W/m 9,7 km/h (2 Bft) 97,87 %
22.01.2022 04:18 3,7 C 3,3 C 2,2 C 98 % 1033,1 hPa 0,0 l/m 0 min 0 min 0 W/m 12,9 km/h (3 Bft) 100,00 %
22.01.2022 04:20 3,7 C 3,3 C 2,2 C 98 % 1033,1 hPa 0,0 l/m 0 min 0 min 0 W/m 12,9 km/h (3 Bft) 100,00 %
22.01.2022 04:22 3,7 C 3,3 C 2,2 C 98 % 1033,1 hPa 0,0 l/m 0 min 0 min 0 W/m 12,9 km/h (3 Bft) 100,00 %
22.01.2022 04:24 3,7 C 3,3 C 2,2 C 98 % 1033,2 hPa 0,0 l/m 0 min 0 min 0 W/m 16,1 km/h (3 Bft) 97,87 %
22.01.2022 04:26 3,7 C 3,3 C 2,2 C 98 % 1033,2 hPa 0,0 l/m 0 min 0 min 0 W/m 16,1 km/h (3 Bft) 100,00 %
22.01.2022 04:31 3,7 C 3,3 C 2,2 C 98 % 1033,2 hPa 0,0 l/m 0 min 0 min 0 W/m 16,1 km/h (3 Bft) 95,24 %
22.01.2022 04:32 3,7 C 3,3 C 2,2 C 98 % 1033,2 hPa 0,0 l/m 0 min 0 min 0 W/m 6,4 km/h (2 Bft) 100,00 %
22.01.2022 04:34 3,7 C 3,3 C 2,2 C 98 % 1033,2 hPa 0,0 l/m 0 min 0 min 0 W/m 12,9 km/h (3 Bft) 95,74 %
22.01.2022 04:36 3,7 C 3,3 C 2,2 C 98 % 1033,2 hPa 0,0 l/m 0 min 0 min 0 W/m 9,7 km/h (2 Bft) 97,87 %
22.01.2022 04:38 3,7 C 3,3 C 2,2 C 98 % 1033,2 hPa 0,0 l/m 0 min 0 min 0 W/m 12,9 km/h (3 Bft) 95,65 %
22.01.2022 04:40 3,7 C 3,3 C 2,2 C 98 % 1033,2 hPa 0,0 l/m 0 min 0 min 0 W/m 6,4 km/h (2 Bft) 93,62 %
22.01.2022 04:42 3,7 C 3,3 C 2,2 C 98 % 1033,2 hPa 0,0 l/m 0 min 0 min 0 W/m 9,7 km/h (2 Bft) 97,87 %
22.01.2022 04:44 3,7 C 3,3 C 2,2 C 98 % 1033,2 hPa 0,0 l/m 0 min 0 min 0 W/m 9,7 km/h (2 Bft) 78,72 %
22.01.2022 04:46 3,7 C 3,3 C 2,2 C 98 % 1033,3 hPa 0,0 l/m 0 min 0 min 0 W/m 16,1 km/h (3 Bft) 61,76 %
22.01.2022 04:48 3,7 C 3,3 C 2,2 C 98 % 1033,3 hPa 0,0 l/m 0 min 0 min 0 W/m 6,4 km/h (2 Bft) 95,74 %
22.01.2022 04:50 3,8 C 3,3 C 2,2 C 98 % 1033,2 hPa 0,0 l/m 0 min 0 min 0 W/m 9,7 km/h (2 Bft) 93,48 %
22.01.2022 04:52 3,7 C 3,3 C 2,2 C 98 % 1033,3 hPa 0,0 l/m 0 min 0 min 0 W/m 12,9 km/h (3 Bft) 95,74 %
22.01.2022 04:54 3,8 C 3,3 C 2,2 C 98 % 1033,3 hPa 0,0 l/m 0 min 0 min 0 W/m 9,7 km/h (2 Bft) 95,74 %
22.01.2022 04:56 3,8 C 3,3 C 2,2 C 98 % 1033,3 hPa 0,0 l/m 0 min 0 min 0 W/m 9,7 km/h (2 Bft) 91,49 %
22.01.2022 04:58 3,8 C 3,3 C 2,2 C 98 % 1033,3 hPa 0,0 l/m 0 min 0 min 0 W/m 9,7 km/h (2 Bft) 95,74 %
22.01.2022 05:00 3,8 C 3,3 C 2,2 C 98 % 1033,4 hPa 0,0 l/m 0 min 0 min 0 W/m 12,9 km/h (3 Bft) 95,65 %
22.01.2022 05:02 3,8 C 3,3 C 2,2 C 98 % 1033,3 hPa 0,0 l/m 0 min 0 min 0 W/m 9,7 km/h (2 Bft) 95,74 %
22.01.2022 05:04 3,8 C 3,3 C 2,2 C 98 % 1033,3 hPa 0,0 l/m 0 min 0 min 0 W/m 12,9 km/h (3 Bft) 95,74 %
22.01.2022 05:06 3,8 C 3,3 C 2,2 C 98 % 1033,3 hPa 0,0 l/m 0 min 0 min 0 W/m 16,1 km/h (3 Bft) 91,49 %
22.01.2022 05:08 3,8 C 3,3 C 2,2 C 98 % 1033,3 hPa 0,0 l/m 0 min 0 min 0 W/m 6,4 km/h (2 Bft) 91,49 %
22.01.2022 05:10 3,8 C 3,3 C 2,2 C 98 % 1033,3 hPa 0,0 l/m 0 min 0 min 0 W/m 6,4 km/h (2 Bft) 93,62 %
22.01.2022 05:12 3,8 C 3,3 C 2,2 C 98 % 1033,4 hPa 0,0 l/m 0 min 0 min 0 W/m 9,7 km/h (2 Bft) 90,57 %
22.01.2022 05:14 3,8 C 3,3 C 2,2 C 98 % 1033,4 hPa 0,0 l/m 0 min 0 min 0 W/m 12,9 km/h (3 Bft) 93,62 %
22.01.2022 05:16 3,8 C 3,3 C 2,2 C 98 % 1033,3 hPa 0,0 l/m 0 min 0 min 0 W/m 9,7 km/h (2 Bft) 93,62 %
22.01.2022 05:18 3,9 C 3,3 C 2,8 C 98 % 1033,4 hPa 0,0 l/m 0 min 0 min 0 W/m 12,9 km/h (3 Bft) 95,74 %
22.01.2022 05:20 3,9 C 3,3 C 2,2 C 98 % 1033,3 hPa 0,0 l/m 0 min 0 min 0 W/m 9,7 km/h (2 Bft) 95,74 %
22.01.2022 05:22 3,9 C 3,3 C 2,8 C 98 % 1033,3 hPa 0,0 l/m 0 min 0 min 0 W/m 12,9 km/h (3 Bft) 95,65 %
22.01.2022 05:24 3,9 C 3,3 C 2,8 C 98 % 1033,4 hPa 0,0 l/m 0 min 0 min 0 W/m 6,4 km/h (2 Bft) 95,74 %
22.01.2022 05:26 3,9 C 3,3 C 2,8 C 98 % 1033,3 hPa 0,0 l/m 0 min 0 min 0 W/m 12,9 km/h (3 Bft) 93,62 %
22.01.2022 05:28 3,9 C 3,3 C 2,8 C 98 % 1033,3 hPa 0,0 l/m 0 min 0 min 0 W/m 9,7 km/h (2 Bft) 95,74 %
22.01.2022 05:30 3,9 C 3,3 C 2,8 C 98 % 1033,3 hPa 0,0 l/m 0 min 0 min 0 W/m 9,7 km/h (2 Bft) 95,74 %
22.01.2022 05:32 3,9 C 3,3 C 2,8 C 98 % 1033,2 hPa 0,0 l/m 0 min 0 min 0 W/m 12,9 km/h (3 Bft) 93,62 %
22.01.2022 05:34 4,0 C 3,3 C 2,8 C 98 % 1033,3 hPa 0,0 l/m 0 min 0 min 0 W/m 9,7 km/h (2 Bft) 95,65 %
22.01.2022 05:36 4,0 C 3,3 C 2,8 C 98 % 1033,3 hPa 0,0 l/m 0 min 0 min 0 W/m 12,9 km/h (3 Bft) 95,74 %
22.01.2022 05:38 4,0 C 3,3 C 2,8 C 98 % 1033,3 hPa 0,0 l/m 0 min 0 min 0 W/m 9,7 km/h (2 Bft) 98,00 %
22.01.2022 05:40 4,0 C 3,3 C 2,8 C 98 % 1033,4 hPa 0,0 l/m 0 min 0 min 0 W/m 6,4 km/h (2 Bft) 100,00 %
22.01.2022 05:42 4,0 C 3,3 C 2,8 C 98 % 1033,3 hPa 0,0 l/m 0 min 0 min 0 W/m 6,4 km/h (2 Bft) 97,87 %
22.01.2022 05:44 4,0 C 3,3 C 2,8 C 98 % 1033,3 hPa 0,0 l/m 0 min 0 min 0 W/m 6,4 km/h (2 Bft) 97,83 %
22.01.2022 05:46 4,1 C 3,3 C 2,8 C 98 % 1033,3 hPa 0,0 l/m 0 min 0 min 0 W/m 6,4 km/h (2 Bft) 100,00 %
22.01.2022 05:48 4,1 C 3,3 C 2,8 C 98 % 1033,3 hPa 0,0 l/m 0 min 0 min 0 W/m 6,4 km/h (2 Bft) 100,00 %
22.01.2022 05:50 4,1 C 3,3 C 2,8 C 98 % 1033,3 hPa 0,0 l/m 0 min 0 min 0 W/m 6,4 km/h (2 Bft) 100,00 %
22.01.2022 05:52 4,1 C 3,3 C 2,8 C 98 % 1033,3 hPa 0,0 l/m 0 min 0 min 0 W/m 16,1 km/h (3 Bft) 100,00 %
22.01.2022 05:54 4,1 C 3,3 C 2,8 C 98 % 1033,3 hPa 0,0 l/m 0 min 0 min 0 W/m 3,2 km/h (1 Bft) 100,00 %
22.01.2022 05:56 4,1 C 3,3 C 2,8 C 98 % 1033,3 hPa 0,0 l/m 0 min 0 min 0 W/m 12,9 km/h (3 Bft) 100,00 %
22.01.2022 05:58 4,1 C 3,3 C 2,8 C 98 % 1033,2 hPa 0,0 l/m 0 min 0 min 0 W/m 6,4 km/h (2 Bft) 100,00 %
22.01.2022 06:00 4,1 C 3,3 C 2,8 C 98 % 1033,2 hPa 0,0 l/m 0 min 0 min 0 W/m 6,4 km/h (2 Bft) 100,00 %
22.01.2022 06:02 4,1 C 3,9 C 2,8 C 98 % 1033,3 hPa 0,0 l/m 0 min 0 min 0 W/m 9,7 km/h (2 Bft) 100,00 %
22.01.2022 06:04 4,1 C 3,9 C 2,8 C 98 % 1033,3 hPa 0,0 l/m 0 min 0 min 0 W/m 12,9 km/h (3 Bft) 100,00 %
22.01.2022 06:08 4,1 C 3,9 C 2,8 C 98 % 1033,3 hPa 0,0 l/m 0 min 0 min 0 W/m 16,1 km/h (3 Bft) 100,00 %
22.01.2022 06:10 4,1 C 3,9 C 2,8 C 98 % 1033,3 hPa 0,0 l/m 0 min 0 min 0 W/m 12,9 km/h (3 Bft) 100,00 %
22.01.2022 06:12 4,1 C 3,9 C 2,8 C 98 % 1033,3 hPa 0,0 l/m 0 min 0 min 0 W/m 9,7 km/h (2 Bft) 100,00 %
22.01.2022 06:14 4,1 C 3,9 C 2,8 C 98 % 1033,3 hPa 0,0 l/m 0 min 0 min 0 W/m 9,7 km/h (2 Bft) 100,00 %
22.01.2022 06:16 4,1 C 3,9 C 2,8 C 98 % 1033,3 hPa 0,0 l/m 0 min 0 min 0 W/m 12,9 km/h (3 Bft) 100,00 %
22.01.2022 06:18 4,1 C 3,9 C 2,8 C 98 % 1033,2 hPa 0,0 l/m 0 min 0 min 0 W/m 6,4 km/h (2 Bft) 97,87 %
22.01.2022 06:20 4,1 C 3,9 C 2,8 C 98 % 1033,3 hPa 0,0 l/m 0 min 0 min 0 W/m 6,4 km/h (2 Bft) 100,00 %
22.01.2022 06:22 4,1 C 3,9 C 2,8 C 98 % 1033,3 hPa 0,0 l/m 0 min 0 min 0 W/m 6,4 km/h (2 Bft) 100,00 %
22.01.2022 06:24 4,1 C 3,9 C 2,8 C 98 % 1033,2 hPa 0,0 l/m 0 min 0 min 0 W/m 9,7 km/h (2 Bft) 97,87 %
22.01.2022 06:26 4,2 C 3,9 C 2,8 C 98 % 1033,2 hPa 0,0 l/m 0 min 0 min 0 W/m 6,4 km/h (2 Bft) 97,87 %
22.01.2022 06:28 4,2 C 3,9 C 2,8 C 98 % 1033,3 hPa 0,0 l/m 0 min 0 min 0 W/m 9,7 km/h (2 Bft) 100,00 %
22.01.2022 06:30 4,2 C 3,9 C 2,8 C 98 % 1033,3 hPa 0,0 l/m 0 min 0 min 0 W/m 9,7 km/h (2 Bft) 100,00 %
22.01.2022 06:32 4,2 C 3,9 C 2,8 C 98 % 1033,3 hPa 0,0 l/m 0 min 0 min 0 W/m 6,4 km/h (2 Bft) 100,00 %
22.01.2022 06:34 4,2 C 3,9 C 2,8 C 98 % 1033,3 hPa 0,0 l/m 0 min 0 min 0 W/m 12,9 km/h (3 Bft) 100,00 %
22.01.2022 06:36 4,2 C 3,9 C 2,8 C 98 % 1033,3 hPa 0,0 l/m 0 min 0 min 0 W/m 9,7 km/h (2 Bft) 100,00 %
22.01.2022 06:38 4,2 C 3,9 C 2,8 C 98 % 1033,3 hPa 0,0 l/m 0 min 0 min 0 W/m 6,4 km/h (2 Bft) 95,74 %
22.01.2022 06:40 4,2 C 3,9 C 2,8 C 98 % 1033,4 hPa 0,0 l/m 0 min 0 min 0 W/m 9,7 km/h (2 Bft) 100,00 %
22.01.2022 06:42 4,2 C 3,9 C 2,8 C 98 % 1033,4 hPa 0,0 l/m 0 min 0 min 0 W/m 6,4 km/h (2 Bft) 100,00 %
22.01.2022 06:44 4,2 C 3,9 C 2,8 C 98 % 1033,4 hPa 0,0 l/m 0 min 0 min 0 W/m 3,2 km/h (1 Bft) 97,87 %
22.01.2022 06:46 4,2 C 3,9 C 2,8 C 98 % 1033,4 hPa 0,0 l/m 0 min 0 min 0 W/m 6,4 km/h (2 Bft) 100,00 %
22.01.2022 06:48 4,2 C 3,9 C 2,8 C 98 % 1033,3 hPa 0,0 l/m 0 min 0 min 0 W/m 12,9 km/h (3 Bft) 100,00 %
22.01.2022 06:50 4,2 C 3,9 C 2,8 C 98 % 1033,3 hPa 0,0 l/m 0 min 0 min 0 W/m 9,7 km/h (2 Bft) 100,00 %
22.01.2022 06:52 4,2 C 3,9 C 2,8 C 98 % 1033,3 hPa 0,0 l/m 0 min 0 min 0 W/m 9,7 km/h (2 Bft) 100,00 %
22.01.2022 06:54 4,2 C 3,9 C 2,8 C 98 % 1033,3 hPa 0,0 l/m 0 min 0 min 0 W/m 6,4 km/h (2 Bft) 100,00 %
22.01.2022 06:56 4,2 C 3,9 C 2,8 C 98 % 1033,3 hPa 0,0 l/m 0 min 0 min 0 W/m 16,1 km/h (3 Bft) 100,00 %
22.01.2022 06:58 4,2 C 3,9 C 2,8 C 98 % 1033,3 hPa 0,0 l/m 0 min 0 min 0 W/m 6,4 km/h (2 Bft) 100,00 %
22.01.2022 07:00 4,2 C 3,9 C 2,8 C 98 % 1033,4 hPa 0,0 l/m 0 min 0 min 0 W/m 9,7 km/h (2 Bft) 95,74 %
22.01.2022 07:02 4,2 C 3,9 C 2,8 C 98 % 1033,4 hPa 0,0 l/m 0 min 0 min 0 W/m 6,4 km/h (2 Bft) 100,00 %
22.01.2022 07:04 4,2 C 3,9 C 2,8 C 98 % 1033,4 hPa 0,0 l/m 0 min 0 min 0 W/m 9,7 km/h (2 Bft) 95,74 %
22.01.2022 07:06 4,2 C 3,9 C 2,8 C 98 % 1033,4 hPa 0,0 l/m 0 min 0 min 0 W/m 9,7 km/h (2 Bft) 97,87 %
22.01.2022 07:08 4,2 C 3,9 C 2,8 C 98 % 1033,4 hPa 0,0 l/m 0 min 0 min 0 W/m 12,9 km/h (3 Bft) 97,83 %
22.01.2022 07:10 4,3 C 3,9 C 2,8 C 98 % 1033,4 hPa 0,0 l/m 0 min 0 min 0 W/m 12,9 km/h (3 Bft) 95,83 %
22.01.2022 07:12 4,3 C 3,9 C 2,8 C 98 % 1033,4 hPa 0,0 l/m 0 min 0 min 0 W/m 6,4 km/h (2 Bft) 95,83 %
22.01.2022 07:14 4,3 C 3,9 C 2,8 C 98 % 1033,4 hPa 0,0 l/m 0 min 0 min 0 W/m 6,4 km/h (2 Bft) 97,87 %
22.01.2022 07:16 4,3 C 3,9 C 2,8 C 98 % 1033,4 hPa 0,0 l/m 0 min 0 min 0 W/m 6,4 km/h (2 Bft) 97,87 %
22.01.2022 07:18 4,3 C 3,9 C 2,8 C 98 % 1033,4 hPa 0,0 l/m 0 min 0 min 0 W/m 12,9 km/h (3 Bft) 95,74 %
22.01.2022 07:20 4,3 C 3,9 C 2,8 C 98 % 1033,4 hPa 0,0 l/m 0 min 0 min 0 W/m 6,4 km/h (2 Bft) 95,65 %
22.01.2022 07:22 4,3 C 3,9 C 2,8 C 98 % 1033,4 hPa 0,0 l/m 0 min 0 min 0 W/m 6,4 km/h (2 Bft) 95,74 %
22.01.2022 07:24 4,3 C 3,9 C 2,8 C 98 % 1033,4 hPa 0,0 l/m 0 min 0 min 0 W/m 6,4 km/h (2 Bft) 93,62 %
22.01.2022 07:26 4,3 C 3,9 C 2,8 C 98 % 1033,5 hPa 0,0 l/m 0 min 0 min 0 W/m 9,7 km/h (2 Bft) 93,62 %
22.01.2022 07:28 4,3 C 3,9 C 2,8 C 98 % 1033,5 hPa 0,0 l/m 0 min 0 min 0 W/m 9,7 km/h (2 Bft) 91,49 %
22.01.2022 07:30 4,3 C 3,9 C 2,8 C 98 % 1033,5 hPa 0,0 l/m 0 min 0 min 0 W/m 9,7 km/h (2 Bft) 93,62 %
22.01.2022 07:32 4,3 C 3,9 C 2,8 C 98 % 1033,5 hPa 0,0 l/m 0 min 0 min 0 W/m 9,7 km/h (2 Bft) 91,30 %
22.01.2022 07:34 4,3 C 3,9 C 2,8 C 98 % 1033,5 hPa 0,0 l/m 0 min 0 min 0 W/m 12,9 km/h (3 Bft) 91,49 %
22.01.2022 07:36 4,3 C 3,9 C 2,8 C 98 % 1033,6 hPa 0,0 l/m 0 min 0 min 0 W/m 9,7 km/h (2 Bft) 93,62 %
22.01.2022 07:38 4,3 C 3,9 C 2,8 C 98 % 1033,6 hPa 0,0 l/m 0 min 0 min 0 W/m 9,7 km/h (2 Bft) 95,35 %
22.01.2022 07:40 4,3 C 3,9 C 2,8 C 98 % 1033,6 hPa 0,0 l/m 0 min 0 min 0 W/m 9,7 km/h (2 Bft) 95,74 %
22.01.2022 07:42 4,3 C 3,9 C 2,8 C 98 % 1033,7 hPa 0,0 l/m 0 min 0 min 0 W/m 6,4 km/h (2 Bft) 95,74 %
22.01.2022 07:44 4,3 C 3,9 C 2,8 C 98 % 1033,8 hPa 0,0 l/m 0 min 0 min 0 W/m 9,7 km/h (2 Bft) 95,65 %
22.01.2022 07:46 4,3 C 3,9 C 2,8 C 98 % 1033,8 hPa 0,0 l/m 0 min 0 min 0 W/m 9,7 km/h (2 Bft) 95,83 %
22.01.2022 07:48 4,3 C 3,9 C 2,8 C 98 % 1033,8 hPa 0,0 l/m 0 min 0 min 0 W/m 6,4 km/h (2 Bft) 93,62 %
22.01.2022 07:50 4,3 C 3,9 C 2,8 C 98 % 1033,8 hPa 0,0 l/m 0 min 0 min 0 W/m 9,7 km/h (2 Bft) 93,75 %
22.01.2022 07:52 4,3 C 3,9 C 2,8 C 98 % 1033,8 hPa 0,0 l/m 0 min 0 min 0 W/m 12,9 km/h (3 Bft) 95,74 %
22.01.2022 07:54 4,3 C 3,9 C 2,8 C 98 % 1033,8 hPa 0,0 l/m 0 min 0 min 0 W/m 6,4 km/h (2 Bft) 95,74 %
22.01.2022 07:56 4,3 C 3,9 C 2,8 C 98 % 1033,9 hPa 0,0 l/m 0 min 0 min 0 W/m 12,9 km/h (3 Bft) 95,74 %
22.01.2022 07:58 4,3 C 3,9 C 2,8 C 98 % 1033,9 hPa 0,0 l/m 0 min 0 min 0 W/m 9,7 km/h (2 Bft) 95,83 %
22.01.2022 08:00 4,3 C 3,9 C 2,8 C 98 % 1033,9 hPa 0,0 l/m 0 min 0 min 0 W/m 3,2 km/h (1 Bft) 93,62 %
22.01.2022 08:02 4,3 C 3,9 C 2,8 C 98 % 1033,9 hPa 0,0 l/m 0 min 0 min 0 W/m 9,7 km/h (2 Bft) 93,62 %
22.01.2022 08:04 4,3 C 3,9 C 2,8 C 98 % 1033,9 hPa 0,0 l/m 0 min 0 min 0 W/m 9,7 km/h (2 Bft) 95,74 %
22.01.2022 08:06 4,3 C 3,9 C 2,8 C 98 % 1034,0 hPa 0,0 l/m 0 min 0 min 0 W/m 6,4 km/h (2 Bft) 93,48 %
22.01.2022 08:08 4,3 C 3,9 C 2,8 C 98 % 1033,9 hPa 0,0 l/m 0 min 0 min 0 W/m 9,7 km/h (2 Bft) 97,87 %
22.01.2022 08:10 4,3 C 3,9 C 2,8 C 98 % 1033,9 hPa 0,0 l/m 0 min 0 min 0 W/m 6,4 km/h (2 Bft) 95,74 %
22.01.2022 08:12 4,3 C 3,9 C 2,8 C 98 % 1033,9 hPa 0,0 l/m 0 min 0 min 0 W/m 3,2 km/h (1 Bft) 100,00 %
22.01.2022 08:14 4,3 C 3,9 C 2,8 C 98 % 1033,9 hPa 0,0 l/m 0 min 0 min 0 W/m 6,4 km/h (2 Bft) 97,83 %
22.01.2022 08:16 4,3 C 3,9 C 2,8 C 98 % 1034,0 hPa 0,0 l/m 0 min 0 min 0 W/m 6,4 km/h (2 Bft) 97,87 %
22.01.2022 08:18 4,3 C 3,9 C 2,8 C 98 % 1034,0 hPa 0,0 l/m 0 min 0 min 0 W/m 9,7 km/h (2 Bft) 100,00 %
22.01.2022 08:20 4,3 C 3,9 C 2,8 C 98 % 1034,0 hPa 0,2 l/m 0 min 0 min 0 W/m 9,7 km/h (2 Bft) 100,00 %
22.01.2022 08:22 4,3 C 3,9 C 2,8 C 98 % 1034,0 hPa 0,0 l/m 0 min 0 min 0 W/m 6,4 km/h (2 Bft) 100,00 %
22.01.2022 08:24 4,3 C 3,9 C 2,8 C 98 % 1034,1 hPa 0,0 l/m 0 min 0 min 0 W/m 6,4 km/h (2 Bft) 97,87 %
22.01.2022 08:26 4,3 C 3,9 C 2,8 C 98 % 1034,1 hPa 0,0 l/m 0 min 0 min 0 W/m 12,9 km/h (3 Bft) 100,00 %
22.01.2022 08:28 4,3 C 3,9 C 2,8 C 98 % 1034,1 hPa 0,0 l/m 0 min 0 min 0 W/m 9,7 km/h (2 Bft) 100,00 %
22.01.2022 08:30 4,3 C 3,9 C 2,8 C 98 % 1034,1 hPa 0,0 l/m 0 min 0 min 0 W/m 9,7 km/h (2 Bft) 100,00 %
22.01.2022 08:32 4,3 C 3,9 C 2,8 C 98 % 1034,1 hPa 0,0 l/m 0 min 0 min 0 W/m 9,7 km/h (2 Bft) 100,00 %
22.01.2022 08:34 4,3 C 3,9 C 2,8 C 98 % 1034,2 hPa 0,0 l/m 0 min 0 min 0 W/m 6,4 km/h (2 Bft) 100,00 %
22.01.2022 08:36 4,3 C 3,9 C 2,8 C 98 % 1034,2 hPa 0,0 l/m 0 min 0 min 0 W/m 6,4 km/h (2 Bft) 100,00 %
22.01.2022 08:38 4,3 C 3,9 C 2,8 C 98 % 1034,3 hPa 0,0 l/m 0 min 0 min 0 W/m 6,4 km/h (2 Bft) 100,00 %
22.01.2022 08:40 4,4 C 3,9 C 2,8 C 98 % 1034,3 hPa 0,0 l/m 0 min 0 min 0 W/m 3,2 km/h (1 Bft) 100,00 %
22.01.2022 08:42 4,4 C 3,9 C 2,8 C 98 % 1034,3 hPa 0,0 l/m 0 min 0 min 1 W/m 3,2 km/h (1 Bft) 100,00 %
22.01.2022 08:44 4,4 C 3,9 C 2,8 C 98 % 1034,3 hPa 0,0 l/m 0 min 0 min 5 W/m 9,7 km/h (2 Bft) 100,00 %
22.01.2022 08:46 4,4 C 3,9 C 2,8 C 98 % 1034,2 hPa 0,0 l/m 0 min 0 min 7 W/m 3,2 km/h (1 Bft) 100,00 %
22.01.2022 08:48 4,4 C 3,9 C 2,8 C 98 % 1034,2 hPa 0,0 l/m 0 min 0 min 7 W/m 6,4 km/h (2 Bft) 97,87 %
22.01.2022 08:51 4,4 C 3,9 C 2,8 C 98 % 1034,2 hPa 0,0 l/m 0 min 0 min 7 W/m 6,4 km/h (2 Bft) 97,40 %
22.01.2022 08:52 4,4 C 3,9 C 2,8 C 98 % 1034,2 hPa 0,0 l/m 0 min 0 min 9 W/m 3,2 km/h (1 Bft) 100,00 %
22.01.2022 08:54 4,4 C 3,9 C 2,8 C 98 % 1034,2 hPa 0,0 l/m 0 min 0 min 10 W/m 6,4 km/h (2 Bft) 100,00 %
22.01.2022 08:56 4,4 C 3,9 C 2,8 C 98 % 1034,2 hPa 0,0 l/m 0 min 0 min 11 W/m 6,4 km/h (2 Bft) 100,00 %
22.01.2022 08:58 4,4 C 3,9 C 2,8 C 99 % 1034,2 hPa 0,0 l/m 0 min 0 min 11 W/m 12,9 km/h (3 Bft) 97,67 %
22.01.2022 09:00 4,4 C 3,9 C 2,8 C 99 % 1034,2 hPa 0,0 l/m 0 min 0 min 11 W/m 6,4 km/h (2 Bft) 100,00 %
22.01.2022 09:02 4,4 C 3,9 C 2,8 C 99 % 1034,3 hPa 0,0 l/m 0 min 0 min 11 W/m 3,2 km/h (1 Bft) 97,96 %
22.01.2022 09:04 4,4 C 3,9 C 2,8 C 99 % 1034,2 hPa 0,0 l/m 0 min 0 min 13 W/m 6,4 km/h (2 Bft) 97,87 %
22.01.2022 09:06 4,4 C 3,9 C 2,8 C 99 % 1034,3 hPa 0,0 l/m 0 min 0 min 16 W/m 6,4 km/h (2 Bft) 97,87 %
22.01.2022 09:08 4,4 C 3,9 C 2,8 C 99 % 1034,3 hPa 0,0 l/m 0 min 0 min 18 W/m 9,7 km/h (2 Bft) 93,62 %
22.01.2022 09:10 4,4 C 3,9 C 2,8 C 99 % 1034,4 hPa 0,0 l/m 0 min 0 min 23 W/m 6,4 km/h (2 Bft) 97,87 %
22.01.2022 09:12 4,4 C 3,9 C 3,3 C 99 % 1034,3 hPa 0,0 l/m 0 min 0 min 22 W/m 6,4 km/h (2 Bft) 95,74 %
22.01.2022 09:14 4,4 C 3,9 C 3,3 C 99 % 1034,3 hPa 0,0 l/m 0 min 0 min 19 W/m 9,7 km/h (2 Bft) 100,00 %
22.01.2022 09:16 4,4 C 3,9 C 3,3 C 99 % 1034,3 hPa 0,0 l/m 0 min 0 min 20 W/m 12,9 km/h (3 Bft) 97,83 %
22.01.2022 09:18 4,4 C 3,9 C 3,3 C 99 % 1034,3 hPa 0,0 l/m 0 min 0 min 17 W/m 16,1 km/h (3 Bft) 97,87 %
22.01.2022 09:20 4,5 C 3,9 C 3,3 C 99 % 1034,4 hPa 0,0 l/m 0 min 0 min 15 W/m 6,4 km/h (2 Bft) 97,87 %
22.01.2022 09:22 4,5 C 3,9 C 3,3 C 99 % 1034,4 hPa 0,0 l/m 0 min 0 min 12 W/m 6,4 km/h (2 Bft) 97,87 %
22.01.2022 09:24 4,5 C 3,9 C 3,3 C 99 % 1034,3 hPa 0,0 l/m 0 min 0 min 11 W/m 6,4 km/h (2 Bft) 95,74 %
22.01.2022 09:26 4,5 C 3,9 C 3,3 C 99 % 1034,4 hPa 0,0 l/m 0 min 0 min 11 W/m 6,4 km/h (2 Bft) 95,74 %
22.01.2022 09:28 4,5 C 3,9 C 3,3 C 99 % 1034,4 hPa 0,0 l/m 0 min 0 min 12 W/m 6,4 km/h (2 Bft) 97,83 %
22.01.2022 09:30 4,5 C 3,9 C 3,3 C 99 % 1034,4 hPa 0,0 l/m 0 min 0 min 15 W/m 6,4 km/h (2 Bft) 97,87 %
22.01.2022 09:32 4,5 C 3,9 C 3,3 C 99 % 1034,3 hPa 0,0 l/m 0 min 0 min 20 W/m 6,4 km/h (2 Bft) 97,87 %
22.01.2022 09:34 4,5 C 3,9 C 3,3 C 99 % 1034,3 hPa 0,0 l/m 0 min 0 min 24 W/m 6,4 km/h (2 Bft) 100,00 %
22.01.2022 09:36 4,5 C 3,9 C 3,3 C 99 % 1034,3 hPa 0,0 l/m 0 min 0 min 24 W/m 6,4 km/h (2 Bft) 100,00 %
22.01.2022 09:38 4,6 C 3,9 C 3,3 C 99 % 1034,3 hPa 0,0 l/m 0 min 0 min 30 W/m 6,4 km/h (2 Bft) 100,00 %
22.01.2022 09:40 4,6 C 3,9 C 3,3 C 99 % 1034,3 hPa 0,0 l/m 0 min 0 min 37 W/m 12,9 km/h (3 Bft) 100,00 %
22.01.2022 09:42 4,6 C 3,9 C 3,3 C 99 % 1034,3 hPa 0,0 l/m 0 min 0 min 35 W/m 9,7 km/h (2 Bft) 100,00 %
22.01.2022 09:44 4,6 C 4,4 C 3,3 C 99 % 1034,3 hPa 0,0 l/m 0 min 0 min 37 W/m 12,9 km/h (3 Bft) 100,00 %
22.01.2022 09:46 4,6 C 4,4 C 3,3 C 99 % 1034,4 hPa 0,0 l/m 0 min 0 min 38 W/m 6,4 km/h (2 Bft) 96,23 %
22.01.2022 09:48 4,6 C 4,4 C 3,3 C 99 % 1034,4 hPa 0,0 l/m 0 min 0 min 38 W/m 6,4 km/h (2 Bft) 100,00 %
22.01.2022 09:50 4,6 C 4,4 C 3,3 C 99 % 1034,4 hPa 0,0 l/m 0 min 0 min 36 W/m 6,4 km/h (2 Bft) 100,00 %
22.01.2022 09:52 4,6 C 4,4 C 3,3 C 99 % 1034,3 hPa 0,0 l/m 0 min 0 min 32 W/m 12,9 km/h (3 Bft) 97,87 %
22.01.2022 09:54 4,6 C 4,4 C 3,3 C 99 % 1034,3 hPa 0,0 l/m 0 min 0 min 31 W/m 6,4 km/h (2 Bft) 100,00 %
22.01.2022 09:56 4,6 C 4,4 C 3,3 C 99 % 1034,4 hPa 0,0 l/m 0 min 0 min 32 W/m 6,4 km/h (2 Bft) 97,87 %
22.01.2022 09:58 4,7 C 4,4 C 3,3 C 99 % 1034,4 hPa 0,0 l/m 0 min 0 min 32 W/m 3,2 km/h (1 Bft) 100,00 %
22.01.2022 10:00 4,7 C 4,4 C 3,3 C 99 % 1034,4 hPa 0,0 l/m 0 min 0 min 32 W/m 12,9 km/h (3 Bft) 100,00 %
22.01.2022 10:02 4,7 C 4,4 C 3,3 C 99 % 1034,4 hPa 0,0 l/m 0 min 0 min 28 W/m 9,7 km/h (2 Bft) 97,96 %
22.01.2022 10:04 4,7 C 4,4 C 3,3 C 99 % 1034,4 hPa 0,0 l/m 0 min 0 min 27 W/m 12,9 km/h (3 Bft) 97,87 %
22.01.2022 10:06 4,7 C 4,4 C 3,3 C 99 % 1034,4 hPa 0,0 l/m 0 min 0 min 27 W/m 9,7 km/h (2 Bft) 97,87 %
22.01.2022 10:08 4,7 C 4,4 C 3,3 C 99 % 1034,4 hPa 0,0 l/m 0 min 0 min 29 W/m 6,4 km/h (2 Bft) 95,74 %
22.01.2022 10:10 4,7 C 4,4 C 3,3 C 99 % 1034,5 hPa 0,0 l/m 0 min 0 min 32 W/m 3,2 km/h (1 Bft) 97,87 %
22.01.2022 10:12 4,7 C 4,4 C 3,3 C 99 % 1034,5 hPa 0,0 l/m 0 min 0 min 28 W/m 6,4 km/h (2 Bft) 97,92 %
22.01.2022 10:14 4,7 C 4,4 C 3,3 C 99 % 1034,4 hPa 0,0 l/m 0 min 0 min 28 W/m 6,4 km/h (2 Bft) 95,65 %
22.01.2022 10:16 4,7 C 4,4 C 3,3 C 99 % 1034,4 hPa 0,0 l/m 0 min 0 min 35 W/m 6,4 km/h (2 Bft) 95,74 %
22.01.2022 10:18 4,7 C 4,4 C 3,3 C 99 % 1034,4 hPa 0,0 l/m 0 min 0 min 33 W/m 3,2 km/h (1 Bft) 95,74 %
22.01.2022 10:20 4,7 C 4,4 C 3,3 C 99 % 1034,5 hPa 0,0 l/m 0 min 0 min 33 W/m 6,4 km/h (2 Bft) 95,74 %
22.01.2022 10:22 4,7 C 4,4 C 3,3 C 99 % 1034,5 hPa 0,0 l/m 0 min 0 min 33 W/m 3,2 km/h (1 Bft) 95,74 %
22.01.2022 10:24 4,7 C 4,4 C 3,3 C 99 % 1034,5 hPa 0,0 l/m 0 min 0 min 37 W/m 6,4 km/h (2 Bft) 95,65 %
22.01.2022 10:26 4,7 C 4,4 C 3,3 C 99 % 1034,5 hPa 0,0 l/m 0 min 0 min 39 W/m 6,4 km/h (2 Bft) 91,49 %
22.01.2022 10:30 4,8 C 4,4 C 3,3 C 99 % 1034,5 hPa 0,0 l/m 0 min 0 min 46 W/m 6,4 km/h (2 Bft) 95,35 %
22.01.2022 10:32 4,8 C 4,4 C 3,3 C 99 % 1034,6 hPa 0,0 l/m 0 min 0 min 45 W/m 6,4 km/h (2 Bft) 95,83 %
22.01.2022 10:34 4,8 C 4,4 C 3,3 C 99 % 1034,6 hPa 0,0 l/m 0 min 0 min 42 W/m 6,4 km/h (2 Bft) 95,92 %
22.01.2022 10:36 4,8 C 4,4 C 3,3 C 99 % 1034,6 hPa 0,0 l/m 0 min 0 min 47 W/m 12,9 km/h (3 Bft) 95,74 %
22.01.2022 10:38 4,8 C 4,4 C 3,3 C 99 % 1034,6 hPa 0,0 l/m 0 min 0 min 40 W/m 6,4 km/h (2 Bft) 94,29 %
22.01.2022 10:40 4,8 C 4,4 C 3,3 C 99 % 1034,6 hPa 0,0 l/m 0 min 0 min 40 W/m 6,4 km/h (2 Bft) 95,74 %
22.01.2022 10:42 4,8 C 4,4 C 3,3 C 99 % 1034,7 hPa 0,0 l/m 0 min 0 min 44 W/m 3,2 km/h (1 Bft) 95,74 %
22.01.2022 10:44 4,8 C 4,4 C 3,9 C 99 % 1034,7 hPa 0,0 l/m 0 min 0 min 47 W/m 6,4 km/h (2 Bft) 95,74 %
22.01.2022 10:46 4,9 C 4,4 C 3,9 C 99 % 1034,6 hPa 0,0 l/m 0 min 0 min 49 W/m 6,4 km/h (2 Bft) 93,62 %
22.01.2022 10:48 4,9 C 4,4 C 3,9 C 99 % 1034,7 hPa 0,0 l/m 0 min 2 min 50 W/m 16,1 km/h (3 Bft) 95,74 %
22.01.2022 10:50 4,9 C 4,4 C 3,9 C 99 % 1034,7 hPa 0,0 l/m 0 min 0 min 51 W/m 6,4 km/h (2 Bft) 97,83 %
22.01.2022 10:52 4,9 C 4,4 C 3,9 C 99 % 1034,7 hPa 0,0 l/m 0 min 0 min 48 W/m 16,1 km/h (3 Bft) 97,87 %
22.01.2022 10:54 4,9 C 4,4 C 3,9 C 99 % 1034,7 hPa 0,0 l/m 0 min 0 min 50 W/m 6,4 km/h (2 Bft) 95,74 %
22.01.2022 10:56 4,9 C 5,0 C 3,9 C 99 % 1034,7 hPa 0,0 l/m 0 min 0 min 59 W/m 6,4 km/h (2 Bft) 97,87 %
22.01.2022 10:58 5,0 C 5,0 C 3,9 C 99 % 1034,7 hPa 0,0 l/m 0 min 0 min 67 W/m 6,4 km/h (2 Bft) 98,00 %
22.01.2022 11:00 5,0 C 5,0 C 3,9 C 99 % 1034,7 hPa 0,0 l/m 0 min 0 min 66 W/m 6,4 km/h (2 Bft) 95,65 %
22.01.2022 11:02 5,0 C 5,0 C 3,9 C 99 % 1034,7 hPa 0,0 l/m 0 min 0 min 55 W/m 16,1 km/h (3 Bft) 92,00 %
22.01.2022 11:04 5,1 C 5,0 C 3,9 C 99 % 1034,7 hPa 0,0 l/m 0 min 0 min 56 W/m 6,4 km/h (2 Bft) 95,74 %
22.01.2022 11:06 5,1 C 5,0 C 3,9 C 99 % 1034,6 hPa 0,0 l/m 0 min 0 min 73 W/m 9,7 km/h (2 Bft) 93,62 %
22.01.2022 11:08 5,1 C 5,0 C 3,9 C 99 % 1034,6 hPa 0,0 l/m 0 min 0 min 83 W/m 6,4 km/h (2 Bft) 95,74 %
22.01.2022 11:10 5,1 C 5,0 C 3,9 C 99 % 1034,6 hPa 0,0 l/m 0 min 0 min 71 W/m 12,9 km/h (3 Bft) 97,87 %
22.01.2022 11:12 5,2 C 5,0 C 3,9 C 99 % 1034,7 hPa 0,0 l/m 0 min 0 min 68 W/m 16,1 km/h (3 Bft) 97,83 %
22.01.2022 11:14 5,2 C 5,0 C 3,9 C 99 % 1034,7 hPa 0,0 l/m 0 min 0 min 61 W/m 9,7 km/h (2 Bft) 95,74 %
22.01.2022 11:16 5,2 C 5,0 C 3,9 C 99 % 1034,6 hPa 0,0 l/m 0 min 0 min 85 W/m 9,7 km/h (2 Bft) 95,74 %
22.01.2022 11:18 5,3 C 5,6 C 4,4 C 99 % 1034,6 hPa 0,0 l/m 0 min 0 min 117 W/m 12,9 km/h (3 Bft) 97,87 %
22.01.2022 11:20 5,3 C 5,6 C 4,4 C 99 % 1034,7 hPa 0,0 l/m 0 min 0 min 93 W/m 9,7 km/h (2 Bft) 95,74 %
22.01.2022 11:22 5,3 C 5,6 C 4,4 C 99 % 1034,7 hPa 0,0 l/m 0 min 0 min 140 W/m 6,4 km/h (2 Bft) 97,87 %
22.01.2022 11:24 5,4 C 6,1 C 4,4 C 99 % 1034,7 hPa 0,0 l/m 2 min 0 min 191 W/m 6,4 km/h (2 Bft) 97,83 %
22.01.2022 11:26 5,5 C 6,1 C 4,4 C 99 % 1034,7 hPa 0,0 l/m 0 min 0 min 135 W/m 9,7 km/h (2 Bft) 97,87 %
22.01.2022 11:28 5,6 C 6,1 C 4,4 C 99 % 1034,7 hPa 0,0 l/m 0 min 0 min 80 W/m 6,4 km/h (2 Bft) 97,87 %
22.01.2022 11:30 5,6 C 6,1 C 4,4 C 99 % 1034,7 hPa 0,0 l/m 0 min 0 min 68 W/m 3,2 km/h (1 Bft) 97,67 %
22.01.2022 11:32 5,6 C 5,6 C 4,4 C 99 % 1034,6 hPa 0,0 l/m 0 min 0 min 56 W/m 9,7 km/h (2 Bft) 97,96 %
22.01.2022 11:34 5,6 C 5,6 C 4,4 C 99 % 1034,6 hPa 0,0 l/m 0 min 0 min 52 W/m 6,4 km/h (2 Bft) 100,00 %
22.01.2022 11:36 5,5 C 5,6 C 4,4 C 99 % 1034,7 hPa 0,0 l/m 0 min 0 min 51 W/m 9,7 km/h (2 Bft) 97,87 %
22.01.2022 11:38 5,5 C 5,6 C 4,4 C 99 % 1034,6 hPa 0,0 l/m 0 min 0 min 49 W/m 6,4 km/h (2 Bft) 100,00 %
22.01.2022 11:40 5,5 C 5,0 C 4,4 C 99 % 1034,6 hPa 0,0 l/m 0 min 0 min 60 W/m 6,4 km/h (2 Bft) 97,87 %
22.01.2022 11:42 5,5 C 5,0 C 4,4 C 99 % 1034,7 hPa 0,0 l/m 0 min 0 min 52 W/m 9,7 km/h (2 Bft) 100,00 %
22.01.2022 11:44 5,5 C 5,0 C 4,4 C 99 % 1034,6 hPa 0,0 l/m 0 min 0 min 46 W/m 12,9 km/h (3 Bft) 97,83 %
22.01.2022 11:46 5,5 C 5,0 C 4,4 C 99 % 1034,6 hPa 0,0 l/m 0 min 0 min 44 W/m 12,9 km/h (3 Bft) 100,00 %
22.01.2022 11:48 5,5 C 5,0 C 4,4 C 99 % 1034,6 hPa 0,0 l/m 0 min 0 min 36 W/m 6,4 km/h (2 Bft) 100,00 %
22.01.2022 11:50 5,5 C 5,0 C 4,4 C 99 % 1034,6 hPa 0,0 l/m 0 min 0 min 39 W/m 6,4 km/h (2 Bft) 100,00 %
22.01.2022 11:52 5,5 C 5,0 C 4,4 C 99 % 1034,7 hPa 0,0 l/m 0 min 0 min 46 W/m 6,4 km/h (2 Bft) 100,00 %
22.01.2022 11:54 5,5 C 5,0 C 4,4 C 99 % 1034,7 hPa 0,0 l/m 0 min 0 min 44 W/m 12,9 km/h (3 Bft) 100,00 %
22.01.2022 11:56 5,5 C 5,0 C 4,4 C 99 % 1034,7 hPa 0,0 l/m 0 min 0 min 45 W/m 9,7 km/h (2 Bft) 100,00 %
22.01.2022 11:58 5,5 C 5,0 C 4,4 C 99 % 1034,7 hPa 0,0 l/m 0 min 0 min 42 W/m 6,4 km/h (2 Bft) 100,00 %
22.01.2022 12:00 5,5 C 5,0 C 4,4 C 99 % 1034,6 hPa 0,0 l/m 0 min 0 min 42 W/m 16,1 km/h (3 Bft) 100,00 %
22.01.2022 12:02 5,5 C 5,0 C 4,4 C 99 % 1034,6 hPa 0,0 l/m 0 min 0 min 39 W/m 12,9 km/h (3 Bft) 100,00 %
22.01.2022 12:04 5,5 C 5,0 C 4,4 C 99 % 1034,6 hPa 0,0 l/m 0 min 0 min 37 W/m 6,4 km/h (2 Bft) 100,00 %
22.01.2022 12:08 5,4 C 5,0 C 4,4 C 99 % 1034,6 hPa 0,0 l/m 0 min 0 min 41 W/m 9,7 km/h (2 Bft) 100,00 %
22.01.2022 12:10 5,4 C 5,0 C 4,4 C 99 % 1034,7 hPa 0,0 l/m 0 min 0 min 41 W/m 12,9 km/h (3 Bft) 100,00 %
22.01.2022 12:12 5,4 C 5,0 C 4,4 C 99 % 1034,7 hPa 0,0 l/m 0 min 0 min 47 W/m 9,7 km/h (2 Bft) 100,00 %
22.01.2022 12:14 5,4 C 5,0 C 4,4 C 99 % 1034,7 hPa 0,0 l/m 0 min 0 min 58 W/m 9,7 km/h (2 Bft) 100,00 %
22.01.2022 12:16 5,4 C 5,0 C 4,4 C 99 % 1034,7 hPa 0,0 l/m 0 min 0 min 54 W/m 9,7 km/h (2 Bft) 100,00 %
22.01.2022 12:18 5,4 C 5,0 C 4,4 C 99 % 1034,7 hPa 0,0 l/m 0 min 0 min 50 W/m 9,7 km/h (2 Bft) 100,00 %
22.01.2022 12:20 5,4 C 5,0 C 4,4 C 99 % 1034,8 hPa 0,0 l/m 0 min 0 min 52 W/m 6,4 km/h (2 Bft) 100,00 %
22.01.2022 12:22 5,4 C 5,0 C 4,4 C 99 % 1034,9 hPa 0,0 l/m 0 min 0 min 52 W/m 16,1 km/h (3 Bft) 97,83 %
22.01.2022 12:24 5,4 C 5,0 C 4,4 C 99 % 1034,8 hPa 0,0 l/m 0 min 0 min 47 W/m 12,9 km/h (3 Bft) 100,00 %
22.01.2022 12:26 5,4 C 5,0 C 4,4 C 99 % 1034,8 hPa 0,0 l/m 0 min 0 min 52 W/m 9,7 km/h (2 Bft) 100,00 %
22.01.2022 12:28 5,4 C 5,0 C 4,4 C 99 % 1034,7 hPa 0,0 l/m 0 min 0 min 60 W/m 9,7 km/h (2 Bft) 100,00 %
22.01.2022 12:30 5,5 C 5,0 C 4,4 C 99 % 1034,7 hPa 0,0 l/m 0 min 0 min 65 W/m 9,7 km/h (2 Bft) 100,00 %
22.01.2022 12:32 5,5 C 5,6 C 4,4 C 99 % 1034,7 hPa 0,0 l/m 0 min 0 min 67 W/m 6,4 km/h (2 Bft) 97,83 %
22.01.2022 12:34 5,6 C 5,6 C 4,4 C 99 % 1034,7 hPa 0,0 l/m 0 min 0 min 57 W/m 9,7 km/h (2 Bft) 100,00 %
22.01.2022 12:36 5,6 C 5,6 C 4,4 C 99 % 1034,7 hPa 0,0 l/m 0 min 0 min 56 W/m 9,7 km/h (2 Bft) 100,00 %
22.01.2022 12:38 5,6 C 5,6 C 4,4 C 99 % 1034,7 hPa 0,0 l/m 0 min 0 min 63 W/m 6,4 km/h (2 Bft) 100,00 %
22.01.2022 12:40 5,6 C 5,6 C 4,4 C 99 % 1034,6 hPa 0,0 l/m 0 min 0 min 70 W/m 6,4 km/h (2 Bft) 100,00 %
22.01.2022 12:42 5,6 C 5,6 C 4,4 C 99 % 1034,7 hPa 0,0 l/m 0 min 0 min 66 W/m 9,7 km/h (2 Bft) 97,87 %
22.01.2022 12:44 5,6 C 5,6 C 4,4 C 99 % 1034,7 hPa 0,0 l/m 0 min 0 min 61 W/m 9,7 km/h (2 Bft) 100,00 %
22.01.2022 12:46 5,6 C 5,6 C 4,4 C 99 % 1034,6 hPa 0,0 l/m 0 min 0 min 58 W/m 6,4 km/h (2 Bft) 100,00 %
22.01.2022 12:48 5,6 C 5,6 C 4,4 C 99 % 1034,6 hPa 0,0 l/m 0 min 0 min 57 W/m 12,9 km/h (3 Bft) 93,62 %
22.01.2022 12:50 5,6 C 5,6 C 4,4 C 99 % 1034,6 hPa 0,0 l/m 0 min 0 min 60 W/m 9,7 km/h (2 Bft) 95,74 %
22.01.2022 12:52 5,6 C 5,6 C 4,4 C 99 % 1034,6 hPa 0,0 l/m 0 min 0 min 60 W/m 6,4 km/h (2 Bft) 97,87 %
22.01.2022 12:54 5,6 C 5,6 C 4,4 C 99 % 1034,6 hPa 0,0 l/m 0 min 0 min 55 W/m 6,4 km/h (2 Bft) 97,83 %
22.01.2022 12:56 5,6 C 5,6 C 4,4 C 99 % 1034,7 hPa 0,0 l/m 0 min 0 min 54 W/m 6,4 km/h (2 Bft) 95,74 %
22.01.2022 12:58 5,7 C 5,6 C 4,4 C 99 % 1034,7 hPa 0,0 l/m 0 min 0 min 51 W/m 6,4 km/h (2 Bft) 95,74 %
22.01.2022 13:00 5,7 C 5,6 C 4,4 C 99 % 1034,7 hPa 0,0 l/m 0 min 0 min 52 W/m 9,7 km/h (2 Bft) 95,74 %
22.01.2022 13:02 5,7 C 5,6 C 4,4 C 99 % 1034,6 hPa 0,0 l/m 0 min 0 min 50 W/m 9,7 km/h (2 Bft) 97,92 %
22.01.2022 13:04 5,7 C 5,6 C 4,4 C 99 % 1034,6 hPa 0,0 l/m 0 min 0 min 44 W/m 6,4 km/h (2 Bft) 95,74 %
22.01.2022 13:06 5,7 C 5,6 C 4,4 C 99 % 1034,6 hPa 0,0 l/m 0 min 0 min 43 W/m 6,4 km/h (2 Bft) 95,65 %
22.01.2022 13:08 5,7 C 5,6 C 4,4 C 99 % 1034,6 hPa 0,0 l/m 0 min 0 min 41 W/m 6,4 km/h (2 Bft) 93,62 %
22.01.2022 13:10 5,7 C 5,6 C 4,4 C 99 % 1034,6 hPa 0,0 l/m 0 min 0 min 40 W/m 9,7 km/h (2 Bft) 93,62 %
22.01.2022 13:12 5,7 C 5,6 C 4,4 C 99 % 1034,7 hPa 0,0 l/m 0 min 0 min 48 W/m 6,4 km/h (2 Bft) 93,75 %
22.01.2022 13:14 5,7 C 5,6 C 4,4 C 99 % 1034,7 hPa 0,0 l/m 0 min 0 min 47 W/m 6,4 km/h (2 Bft) 91,43 %
22.01.2022 13:16 5,7 C 5,6 C 4,4 C 99 % 1034,6 hPa 0,0 l/m 0 min 0 min 44 W/m 6,4 km/h (2 Bft) 93,22 %
22.01.2022 13:18 5,7 C 5,6 C 4,4 C 99 % 1034,6 hPa 0,0 l/m 0 min 0 min 40 W/m 6,4 km/h (2 Bft) 93,48 %
22.01.2022 13:20 5,7 C 5,6 C 4,4 C 99 % 1034,6 hPa 0,0 l/m 0 min 0 min 41 W/m 6,4 km/h (2 Bft) 93,62 %
22.01.2022 13:22 5,7 C 5,6 C 4,4 C 99 % 1034,7 hPa 0,0 l/m 0 min 0 min 48 W/m 6,4 km/h (2 Bft) 91,49 %
22.01.2022 13:24 5,7 C 5,6 C 4,4 C 99 % 1034,6 hPa 0,0 l/m 0 min 0 min 52 W/m 6,4 km/h (2 Bft) 93,62 %
22.01.2022 13:26 5,7 C 5,6 C 4,4 C 99 % 1034,6 hPa 0,0 l/m 0 min 0 min 53 W/m 9,7 km/h (2 Bft) 89,36 %
22.01.2022 13:28 5,7 C 5,6 C 4,4 C 99 % 1034,6 hPa 0,0 l/m 0 min 0 min 49 W/m 9,7 km/h (2 Bft) 94,29 %
22.01.2022 13:30 5,7 C 5,6 C 4,4 C 99 % 1034,5 hPa 0,0 l/m 0 min 0 min 47 W/m 6,4 km/h (2 Bft) 93,10 %
22.01.2022 13:32 5,7 C 5,6 C 4,4 C 99 % 1034,6 hPa 0,0 l/m 0 min 0 min 42 W/m 6,4 km/h (2 Bft) 94,29 %
22.01.2022 13:34 5,7 C 5,6 C 4,4 C 99 % 1034,6 hPa 0,0 l/m 0 min 0 min 40 W/m 6,4 km/h (2 Bft) 93,22 %
22.01.2022 13:36 5,7 C 5,6 C 4,4 C 99 % 1034,6 hPa 0,0 l/m 0 min 0 min 34 W/m 6,4 km/h (2 Bft) 94,29 %
22.01.2022 13:38 5,7 C 5,6 C 4,4 C 99 % 1034,5 hPa 0,0 l/m 0 min 0 min 34 W/m 6,4 km/h (2 Bft) 96,61 %
22.01.2022 13:40 5,7 C 5,0 C 4,4 C 99 % 1034,5 hPa 0,0 l/m 0 min 0 min 40 W/m 6,4 km/h (2 Bft) 97,83 %
22.01.2022 13:42 5,7 C 5,0 C 4,4 C 99 % 1034,5 hPa 0,0 l/m 0 min 0 min 42 W/m 6,4 km/h (2 Bft) 97,22 %
22.01.2022 13:44 5,7 C 5,6 C 4,4 C 99 % 1034,6 hPa 0,0 l/m 0 min 0 min 41 W/m 6,4 km/h (2 Bft) 97,87 %
22.01.2022 13:46 5,7 C 5,6 C 4,4 C 99 % 1034,6 hPa 0,0 l/m 0 min 0 min 41 W/m 12,9 km/h (3 Bft) 97,87 %
22.01.2022 13:48 5,7 C 5,0 C 4,4 C 99 % 1034,6 hPa 0,0 l/m 0 min 0 min 35 W/m 12,9 km/h (3 Bft) 97,92 %
22.01.2022 13:50 5,7 C 5,0 C 4,4 C 99 % 1034,6 hPa 0,0 l/m 0 min 0 min 34 W/m 6,4 km/h (2 Bft) 97,87 %
22.01.2022 13:52 5,7 C 5,0 C 4,4 C 99 % 1034,5 hPa 0,0 l/m 0 min 0 min 36 W/m 6,4 km/h (2 Bft) 97,87 %
22.01.2022 13:54 5,7 C 5,0 C 4,4 C 99 % 1034,5 hPa 0,0 l/m 0 min 0 min 37 W/m 12,9 km/h (3 Bft) 93,75 %
22.01.2022 13:56 5,7 C 5,0 C 4,4 C 99 % 1034,5 hPa 0,0 l/m 0 min 0 min 32 W/m 6,4 km/h (2 Bft) 97,83 %
22.01.2022 13:58 5,7 C 5,0 C 4,4 C 99 % 1034,5 hPa 0,0 l/m 0 min 0 min 28 W/m 6,4 km/h (2 Bft) 100,00 %
22.01.2022 14:00 5,7 C 5,0 C 4,4 C 99 % 1034,5 hPa 0,0 l/m 0 min 0 min 23 W/m 6,4 km/h (2 Bft) 100,00 %
22.01.2022 14:02 5,7 C 5,0 C 4,4 C 99 % 1034,5 hPa 0,0 l/m 0 min 0 min 27 W/m 6,4 km/h (2 Bft) 97,87 %
22.01.2022 14:04 5,7 C 5,0 C 4,4 C 99 % 1034,5 hPa 0,0 l/m 0 min 0 min 29 W/m 6,4 km/h (2 Bft) 97,87 %
22.01.2022 14:06 5,7 C 5,0 C 4,4 C 99 % 1034,5 hPa 0,0 l/m 0 min 0 min 31 W/m 6,4 km/h (2 Bft) 100,00 %
22.01.2022 14:08 5,7 C 5,0 C 4,4 C 99 % 1034,5 hPa 0,0 l/m 0 min 0 min 31 W/m 9,7 km/h (2 Bft) 100,00 %
22.01.2022 14:10 5,7 C 5,0 C 4,4 C 99 % 1034,6 hPa 0,0 l/m 0 min 0 min 33 W/m 3,2 km/h (1 Bft) 100,00 %
22.01.2022 14:12 5,7 C 5,0 C 4,4 C 99 % 1034,5 hPa 0,2 l/m 0 min 0 min 33 W/m 6,4 km/h (2 Bft) 100,00 %
22.01.2022 14:14 5,7 C 5,0 C 4,4 C 99 % 1034,5 hPa 0,0 l/m 0 min 0 min 31 W/m 6,4 km/h (2 Bft) 97,87 %
22.01.2022 14:16 5,7 C 5,0 C 4,4 C 99 % 1034,5 hPa 0,0 l/m 0 min 0 min 27 W/m 3,2 km/h (1 Bft) 100,00 %
22.01.2022 14:18 5,7 C 5,0 C 4,4 C 99 % 1034,5 hPa 0,0 l/m 0 min 0 min 38 W/m 6,4 km/h (2 Bft) 100,00 %
22.01.2022 14:20 5,7 C 5,0 C 4,4 C 99 % 1034,6 hPa 0,0 l/m 0 min 0 min 34 W/m 6,4 km/h (2 Bft) 100,00 %
22.01.2022 14:22 5,7 C 5,0 C 4,4 C 99 % 1034,5 hPa 0,0 l/m 0 min 0 min 30 W/m 6,4 km/h (2 Bft) 100,00 %
22.01.2022 14:24 5,7 C 5,0 C 4,4 C 99 % 1034,5 hPa 0,0 l/m 0 min 2 min 27 W/m 6,4 km/h (2 Bft) 100,00 %
22.01.2022 14:26 5,7 C 5,0 C 4,4 C 99 % 1034,5 hPa 0,0 l/m 0 min 0 min 32 W/m 9,7 km/h (2 Bft) 100,00 %
22.01.2022 14:28 5,7 C 5,0 C 4,4 C 99 % 1034,5 hPa 0,0 l/m 0 min 0 min 26 W/m 6,4 km/h (2 Bft) 97,87 %
22.01.2022 14:30 5,7 C 5,0 C 4,4 C 99 % 1034,5 hPa 0,0 l/m 0 min 0 min 22 W/m 3,2 km/h (1 Bft) 100,00 %
22.01.2022 14:32 5,7 C 5,0 C 4,4 C 99 % 1034,6 hPa 0,0 l/m 0 min 0 min 25 W/m 6,4 km/h (2 Bft) 97,87 %
22.01.2022 14:34 5,7 C 5,0 C 4,4 C 99 % 1034,5 hPa 0,0 l/m 0 min 0 min 22 W/m 6,4 km/h (2 Bft) 97,87 %
22.01.2022 14:36 5,7 C 5,0 C 4,4 C 99 % 1034,5 hPa 0,0 l/m 0 min 0 min 25 W/m 6,4 km/h (2 Bft) 100,00 %
22.01.2022 14:38 5,7 C 5,0 C 4,4 C 99 % 1034,6 hPa 0,0 l/m 0 min 0 min 28 W/m 6,4 km/h (2 Bft) 100,00 %
22.01.2022 14:40 5,7 C 5,0 C 4,4 C 99 % 1034,5 hPa 0,0 l/m 0 min 0 min 26 W/m 6,4 km/h (2 Bft) 97,87 %
22.01.2022 14:42 5,7 C 5,0 C 4,4 C 99 % 1034,6 hPa 0,0 l/m 0 min 0 min 25 W/m 6,4 km/h (2 Bft) 100,00 %
22.01.2022 14:44 5,7 C 5,0 C 4,4 C 99 % 1034,6 hPa 0,0 l/m 0 min 0 min 22 W/m 3,2 km/h (1 Bft) 100,00 %
22.01.2022 14:46 5,7 C 5,0 C 4,4 C 99 % 1034,6 hPa 0,0 l/m 0 min 0 min 19 W/m 6,4 km/h (2 Bft) 98,11 %
22.01.2022 14:48 5,7 C 5,0 C 4,4 C 99 % 1034,6 hPa 0,0 l/m 0 min 0 min 22 W/m 6,4 km/h (2 Bft) 100,00 %
22.01.2022 14:50 5,7 C 5,0 C 4,4 C 99 % 1034,7 hPa 0,0 l/m 0 min 0 min 20 W/m 6,4 km/h (2 Bft) 97,87 %
22.01.2022 14:52 5,7 C 5,0 C 4,4 C 99 % 1034,6 hPa 0,0 l/m 0 min 0 min 22 W/m 3,2 km/h (1 Bft) 95,65 %
22.01.2022 14:54 5,7 C 5,0 C 4,4 C 99 % 1034,6 hPa 0,0 l/m 0 min 0 min 20 W/m 6,4 km/h (2 Bft) 97,87 %
22.01.2022 14:56 5,7 C 5,0 C 4,4 C 99 % 1034,7 hPa 0,0 l/m 0 min 2 min 15 W/m 6,4 km/h (2 Bft) 97,87 %
22.01.2022 14:58 5,7 C 5,0 C 4,4 C 99 % 1034,7 hPa 0,0 l/m 0 min 0 min 14 W/m 6,4 km/h (2 Bft) 100,00 %
22.01.2022 15:00 5,7 C 5,0 C 4,4 C 99 % 1034,7 hPa 0,0 l/m 0 min 0 min 13 W/m 6,4 km/h (2 Bft) 97,87 %
22.01.2022 15:02 5,7 C 5,0 C 4,4 C 99 % 1034,6 hPa 0,0 l/m 0 min 0 min 12 W/m 6,4 km/h (2 Bft) 97,87 %
22.01.2022 15:04 5,7 C 5,0 C 4,4 C 99 % 1034,6 hPa 0,0 l/m 0 min 0 min 14 W/m 12,9 km/h (3 Bft) 97,83 %
22.01.2022 15:06 5,7 C 5,0 C 4,4 C 99 % 1034,6 hPa 0,0 l/m 0 min 0 min 15 W/m 6,4 km/h (2 Bft) 97,87 %
22.01.2022 15:08 5,7 C 5,0 C 4,4 C 99 % 1034,6 hPa 0,0 l/m 0 min 0 min 13 W/m 12,9 km/h (3 Bft) 97,87 %
22.01.2022 15:10 5,7 C 5,0 C 4,4 C 99 % 1034,6 hPa 0,0 l/m 0 min 0 min 12 W/m 6,4 km/h (2 Bft) 95,74 %
22.01.2022 15:12 5,7 C 5,0 C 4,4 C 99 % 1034,6 hPa 0,0 l/m 0 min 0 min 11 W/m 6,4 km/h (2 Bft) 97,30 %
22.01.2022 15:14 5,7 C 5,0 C 4,4 C 99 % 1034,6 hPa 0,0 l/m 0 min 0 min 11 W/m 9,7 km/h (2 Bft) 97,87 %
22.01.2022 15:16 5,7 C 5,0 C 4,4 C 99 % 1034,6 hPa 0,0 l/m 0 min 0 min 9 W/m 6,4 km/h (2 Bft) 97,31 %
22.01.2022 15:20 5,7 C 5,0 C 4,4 C 99 % 1034,6 hPa 0,0 l/m 0 min 0 min 10 W/m 6,4 km/h (2 Bft) 100,00 %
22.01.2022 15:25 5,7 C 5,0 C 4,4 C 99 % 1034,6 hPa 0,0 l/m 0 min 0 min 6 W/m 9,7 km/h (2 Bft) 100,00 %
22.01.2022 15:30 5,7 C 5,0 C 4,4 C 99 % 1034,7 hPa 0,0 l/m 0 min 0 min 5 W/m 12,9 km/h (3 Bft) 98,25 %
22.01.2022 15:35 5,7 C 5,0 C 4,4 C 99 % 1034,6 hPa 0,0 l/m 0 min 0 min 9 W/m 12,9 km/h (3 Bft) 99,12 %
22.01.2022 15:40 5,7 C 5,0 C 4,4 C 99 % 1034,6 hPa 0,0 l/m 0 min 0 min 11 W/m 9,7 km/h (2 Bft) 100,00 %
22.01.2022 15:45 5,7 C 5,0 C 4,4 C 99 % 1034,6 hPa 0,0 l/m 0 min 0 min 14 W/m 9,7 km/h (2 Bft) 98,25 %
22.01.2022 15:50 5,7 C 5,0 C 4,4 C 99 % 1034,6 hPa 0,0 l/m 0 min 0 min 14 W/m 12,9 km/h (3 Bft) 100,00 %
22.01.2022 15:55 5,7 C 5,0 C 4,4 C 99 % 1034,5 hPa 0,0 l/m 0 min 0 min 13 W/m 12,9 km/h (3 Bft) 100,00 %
22.01.2022 16:00 5,7 C 5,0 C 4,4 C 99 % 1034,6 hPa 0,0 l/m 0 min 0 min 10 W/m 9,7 km/h (2 Bft) 99,12 %
22.01.2022 16:05 5,7 C 5,0 C 4,4 C 99 % 1034,6 hPa 0,0 l/m 0 min 0 min 11 W/m 6,4 km/h (2 Bft) 96,49 %
22.01.2022 16:10 5,6 C 5,0 C 4,4 C 99 % 1034,6 hPa 0,0 l/m 0 min 0 min 7 W/m 9,7 km/h (2 Bft) 97,37 %
22.01.2022 16:15 5,6 C 5,0 C 4,4 C 99 % 1034,7 hPa 0,0 l/m 0 min 0 min 7 W/m 3,2 km/h (1 Bft) 98,25 %
22.01.2022 16:20 5,6 C 5,0 C 4,4 C 99 % 1034,5 hPa 0,0 l/m 0 min 0 min 6 W/m 3,2 km/h (1 Bft) 100,00 %
22.01.2022 16:25 5,6 C 5,0 C 4,4 C 99 % 1034,5 hPa 0,0 l/m 0 min 0 min 1 W/m 0,0 km/h (0 Bft) 100,00 %
22.01.2022 16:30 5,6 C 5,0 C 4,4 C 99 % 1034,5 hPa 0,0 l/m 0 min 0 min 0 W/m 0,0 km/h (0 Bft) 100,00 %
22.01.2022 16:35 5,6 C 5,0 C 4,4 C 99 % 1034,6 hPa 0,0 l/m 0 min 0 min 0 W/m 0,0 km/h (0 Bft) 100,00 %
22.01.2022 16:40 5,6 C 5,0 C 4,4 C 99 % 1034,7 hPa 0,0 l/m 0 min 0 min 0 W/m 0,0 km/h (0 Bft) 100,00 %
22.01.2022 16:45 5,6 C 5,0 C 4,4 C 99 % 1034,7 hPa 0,0 l/m 0 min 0 min 0 W/m 0,0 km/h (0 Bft) 99,12 %
22.01.2022 16:50 5,6 C 5,0 C 4,4 C 99 % 1034,7 hPa 0,0 l/m 0 min 0 min 0 W/m 0,0 km/h (0 Bft) 99,12 %
22.01.2022 16:55 5,6 C 5,0 C 4,4 C 99 % 1034,7 hPa 0,0 l/m 0 min 0 min 0 W/m 0,0 km/h (0 Bft) 100,00 %
22.01.2022 17:00 5,6 C 5,0 C 4,4 C 99 % 1034,7 hPa 0,0 l/m 0 min 0 min 0 W/m 6,4 km/h (2 Bft) 98,25 %
22.01.2022 17:05 5,6 C 5,0 C 4,4 C 99 % 1034,7 hPa 0,0 l/m 0 min 0 min 0 W/m 3,2 km/h (1 Bft) 100,00 %
22.01.2022 17:30 5,6 C 5,0 C 4,4 C 99 % 1034,7 hPa 0,0 l/m 0 min 0 min 0 W/m 3,2 km/h (1 Bft) 100,00 %
22.01.2022 17:32 5,6 C 5,0 C 4,4 C 99 % 1034,8 hPa 0,0 l/m 0 min 0 min 0 W/m 12,9 km/h (3 Bft) 100,00 %
22.01.2022 17:34 5,6 C 5,0 C 4,4 C 99 % 1034,8 hPa 0,0 l/m 0 min 0 min 0 W/m 6,4 km/h (2 Bft) 100,00 %
22.01.2022 17:36 5,6 C 5,0 C 4,4 C 99 % 1034,8 hPa 0,0 l/m 0 min 0 min 0 W/m 3,2 km/h (1 Bft) 97,83 %
22.01.2022 17:38 5,6 C 5,0 C 4,4 C 99 % 1034,9 hPa 0,0 l/m 0 min 0 min 0 W/m 3,2 km/h (1 Bft) 100,00 %
22.01.2022 17:40 5,6 C 5,0 C 4,4 C 99 % 1034,9 hPa 0,0 l/m 0 min 0 min 0 W/m 6,4 km/h (2 Bft) 100,00 %
22.01.2022 17:42 5,6 C 5,0 C 4,4 C 99 % 1034,9 hPa 0,0 l/m 0 min 0 min 0 W/m 6,4 km/h (2 Bft) 100,00 %
22.01.2022 17:44 5,5 C 5,0 C 4,4 C 99 % 1035,0 hPa 0,0 l/m 0 min 0 min 0 W/m 6,4 km/h (2 Bft) 100,00 %
22.01.2022 17:46 5,6 C 5,0 C 4,4 C 99 % 1035,0 hPa 0,0 l/m 0 min 0 min 0 W/m 6,4 km/h (2 Bft) 100,00 %
22.01.2022 17:48 5,5 C 5,0 C 4,4 C 99 % 1034,9 hPa 0,0 l/m 0 min 0 min 0 W/m 6,4 km/h (2 Bft) 100,00 %
22.01.2022 17:50 5,5 C 5,0 C 4,4 C 99 % 1034,9 hPa 0,0 l/m 0 min 0 min 0 W/m 12,9 km/h (3 Bft) 100,00 %
22.01.2022 17:52 5,5 C 5,0 C 4,4 C 99 % 1034,9 hPa 0,0 l/m 0 min 0 min 0 W/m 6,4 km/h (2 Bft) 100,00 %
22.01.2022 17:54 5,5 C 5,0 C 4,4 C 99 % 1034,9 hPa 0,0 l/m 0 min 0 min 0 W/m 6,4 km/h (2 Bft) 100,00 %
22.01.2022 17:56 5,5 C 5,0 C 4,4 C 99 % 1034,9 hPa 0,0 l/m 0 min 0 min 0 W/m 6,4 km/h (2 Bft) 97,87 %
22.01.2022 17:58 5,5 C 5,0 C 4,4 C 99 % 1035,0 hPa 0,0 l/m 0 min 0 min 0 W/m 6,4 km/h (2 Bft) 100,00 %
22.01.2022 18:00 5,4 C 5,0 C 4,4 C 99 % 1035,0 hPa 0,0 l/m 0 min 0 min 0 W/m 6,4 km/h (2 Bft) 100,00 %
22.01.2022 18:02 5,4 C 5,0 C 4,4 C 99 % 1034,9 hPa 0,0 l/m 0 min 0 min 0 W/m 6,4 km/h (2 Bft) 100,00 %
22.01.2022 18:04 5,4 C 5,0 C 4,4 C 99 % 1035,0 hPa 0,0 l/m 0 min 0 min 0 W/m 9,7 km/h (2 Bft) 95,74 %
22.01.2022 18:08 5,4 C 5,0 C 4,4 C 99 % 1035,0 hPa 0,0 l/m 0 min 0 min 0 W/m 9,7 km/h (2 Bft) 97,87 %
22.01.2022 18:10 5,4 C 5,0 C 4,4 C 99 % 1035,0 hPa 0,0 l/m 0 min 0 min 0 W/m 6,4 km/h (2 Bft) 97,87 %
22.01.2022 18:12 5,4 C 5,0 C 4,4 C 99 % 1035,0 hPa 0,0 l/m 0 min 0 min 0 W/m 6,4 km/h (2 Bft) 97,83 %
22.01.2022 18:14 5,4 C 5,0 C 4,4 C 99 % 1035,0 hPa 0,0 l/m 0 min 0 min 0 W/m 6,4 km/h (2 Bft) 95,74 %
22.01.2022 18:16 5,4 C 5,0 C 4,4 C 99 % 1035,0 hPa 0,0 l/m 0 min 0 min 0 W/m 3,2 km/h (1 Bft) 97,87 %
22.01.2022 18:18 5,4 C 5,0 C 4,4 C 99 % 1035,1 hPa 0,0 l/m 0 min 0 min 0 W/m 6,4 km/h (2 Bft) 97,87 %
22.01.2022 18:20 5,4 C 5,0 C 4,4 C 99 % 1035,1 hPa 0,0 l/m 0 min 0 min 0 W/m 3,2 km/h (1 Bft) 97,87 %
22.01.2022 18:22 5,4 C 5,0 C 4,4 C 99 % 1035,1 hPa 0,0 l/m 0 min 0 min 0 W/m 3,2 km/h (1 Bft) 95,74 %
22.01.2022 18:24 5,4 C 5,0 C 4,4 C 99 % 1035,1 hPa 0,0 l/m 0 min 0 min 0 W/m 6,4 km/h (2 Bft) 97,83 %
22.01.2022 18:26 5,4 C 5,0 C 4,4 C 99 % 1035,2 hPa 0,0 l/m 0 min 0 min 0 W/m 12,9 km/h (3 Bft) 97,87 %
22.01.2022 18:28 5,3 C 5,0 C 4,4 C 99 % 1035,2 hPa 0,0 l/m 0 min 0 min 0 W/m 6,4 km/h (2 Bft) 97,87 %
22.01.2022 18:30 5,3 C 5,0 C 4,4 C 99 % 1035,1 hPa 0,0 l/m 0 min 0 min 0 W/m 6,4 km/h (2 Bft) 97,87 %
22.01.2022 18:32 5,3 C 5,0 C 4,4 C 99 % 1035,2 hPa 0,0 l/m 0 min 0 min 0 W/m 6,4 km/h (2 Bft) 95,74 %
22.01.2022 18:34 5,3 C 5,0 C 4,4 C 99 % 1035,1 hPa 0,0 l/m 0 min 0 min 0 W/m 3,2 km/h (1 Bft) 97,87 %
22.01.2022 18:36 5,3 C 5,0 C 4,4 C 99 % 1035,2 hPa 0,0 l/m 0 min 0 min 0 W/m 3,2 km/h (1 Bft) 97,83 %
22.01.2022 18:38 5,3 C 5,0 C 4,4 C 99 % 1035,2 hPa 0,0 l/m 0 min 0 min 0 W/m 9,7 km/h (2 Bft) 97,87 %
22.01.2022 18:40 5,3 C 5,0 C 4,4 C 99 % 1035,2 hPa 0,0 l/m 0 min 0 min 0 W/m 6,4 km/h (2 Bft) 95,74 %
22.01.2022 18:42 5,3 C 5,0 C 4,4 C 99 % 1035,2 hPa 0,0 l/m 0 min 0 min 0 W/m 6,4 km/h (2 Bft) 97,87 %
22.01.2022 18:44 5,2 C 5,0 C 4,4 C 99 % 1035,2 hPa 0,0 l/m 0 min 0 min 0 W/m 9,7 km/h (2 Bft) 97,87 %
22.01.2022 18:46 5,2 C 5,0 C 4,4 C 99 % 1035,2 hPa 0,0 l/m 0 min 0 min 0 W/m 6,4 km/h (2 Bft) 95,74 %
22.01.2022 18:48 5,2 C 5,0 C 4,4 C 99 % 1035,3 hPa 0,0 l/m 0 min 0 min 0 W/m 9,7 km/h (2 Bft) 100,00 %
22.01.2022 18:50 5,2 C 5,0 C 4,4 C 99 % 1035,3 hPa 0,0 l/m 0 min 0 min 0 W/m 6,4 km/h (2 Bft) 100,00 %
22.01.2022 18:52 5,2 C 5,0 C 4,4 C 99 % 1035,3 hPa 0,0 l/m 0 min 0 min 0 W/m 6,4 km/h (2 Bft) 100,00 %
22.01.2022 18:54 5,2 C 5,0 C 4,4 C 99 % 1035,2 hPa 0,0 l/m 0 min 0 min 0 W/m 6,4 km/h (2 Bft) 97,87 %
22.01.2022 18:56 5,2 C 5,0 C 4,4 C 99 % 1035,2 hPa 0,0 l/m 0 min 0 min 0 W/m 6,4 km/h (2 Bft) 95,74 %
22.01.2022 18:58 5,2 C 5,0 C 4,4 C 99 % 1035,3 hPa 0,0 l/m 0 min 0 min 0 W/m 6,4 km/h (2 Bft) 97,87 %
22.01.2022 19:00 5,2 C 5,0 C 4,4 C 99 % 1035,3 hPa 0,0 l/m 0 min 0 min 0 W/m 6,4 km/h (2 Bft) 97,83 %
22.01.2022 19:02 5,2 C 4,4 C 4,4 C 99 % 1035,2 hPa 0,0 l/m 0 min 0 min 0 W/m 6,4 km/h (2 Bft) 95,74 %
22.01.2022 19:04 5,2 C 4,4 C 3,9 C 99 % 1035,3 hPa 0,0 l/m 0 min 0 min 0 W/m 6,4 km/h (2 Bft) 95,74 %
22.01.2022 19:06 5,1 C 4,4 C 3,9 C 99 % 1035,3 hPa 0,0 l/m 0 min 0 min 0 W/m 12,9 km/h (3 Bft) 91,49 %
22.01.2022 19:08 5,1 C 4,4 C 3,9 C 99 % 1035,2 hPa 0,0 l/m 0 min 0 min 0 W/m 12,9 km/h (3 Bft) 95,74 %
22.01.2022 19:10 5,1 C 4,4 C 3,9 C 99 % 1035,3 hPa 0,0 l/m 0 min 0 min 0 W/m 0,0 km/h (0 Bft) 97,87 %
22.01.2022 19:12 5,1 C 4,4 C 3,9 C 99 % 1035,2 hPa 0,0 l/m 0 min 0 min 0 W/m 6,4 km/h (2 Bft) 95,65 %
22.01.2022 19:14 5,1 C 4,4 C 3,9 C 99 % 1035,3 hPa 0,0 l/m 0 min 0 min 0 W/m 6,4 km/h (2 Bft) 95,74 %
22.01.2022 19:16 5,1 C 4,4 C 3,9 C 99 % 1035,3 hPa 0,0 l/m 0 min 0 min 0 W/m 6,4 km/h (2 Bft) 95,74 %
22.01.2022 19:18 5,1 C 4,4 C 3,9 C 99 % 1035,3 hPa 0,0 l/m 0 min 0 min 0 W/m 6,4 km/h (2 Bft) 95,74 %
22.01.2022 19:20 5,1 C 4,4 C 3,9 C 99 % 1035,3 hPa 0,0 l/m 0 min 0 min 0 W/m 6,4 km/h (2 Bft) 93,62 %
22.01.2022 19:22 5,1 C 4,4 C 3,9 C 99 % 1035,3 hPa 0,0 l/m 0 min 0 min 0 W/m 3,2 km/h (1 Bft) 71,74 %
22.01.2022 19:24 5,1 C 4,4 C 3,9 C 99 % 1035,3 hPa 0,0 l/m 0 min 0 min 0 W/m 0,0 km/h (0 Bft) 70,59 %
22.01.2022 19:26 5,1 C 4,4 C 3,9 C 99 % 1035,3 hPa 0,0 l/m 0 min 0 min 0 W/m 3,2 km/h (1 Bft) 97,87 %
22.01.2022 19:28 5,1 C 4,4 C 3,9 C 99 % 1035,3 hPa 0,0 l/m 0 min 0 min 0 W/m 9,7 km/h (2 Bft) 93,62 %
22.01.2022 19:30 5,1 C 4,4 C 3,9 C 99 % 1035,3 hPa 0,0 l/m 0 min 0 min 0 W/m 12,9 km/h (3 Bft) 97,87 %
22.01.2022 19:32 5,1 C 4,4 C 3,9 C 99 % 1035,3 hPa 0,0 l/m 0 min 0 min 0 W/m 6,4 km/h (2 Bft) 97,87 %
22.01.2022 19:34 5,1 C 4,4 C 3,9 C 99 % 1035,4 hPa 0,0 l/m 0 min 0 min 0 W/m 6,4 km/h (2 Bft) 97,87 %
22.01.2022 19:36 5,1 C 4,4 C 3,9 C 99 % 1035,4 hPa 0,0 l/m 0 min 0 min 0 W/m 9,7 km/h (2 Bft) 97,83 %
22.01.2022 19:38 5,1 C 4,4 C 3,9 C 99 % 1035,4 hPa 0,0 l/m 0 min 0 min 0 W/m 6,4 km/h (2 Bft) 97,87 %
22.01.2022 19:40 5,1 C 4,4 C 3,9 C 99 % 1035,4 hPa 0,0 l/m 0 min 0 min 0 W/m 6,4 km/h (2 Bft) 95,74 %
22.01.2022 19:42 5,1 C 4,4 C 3,9 C 99 % 1035,4 hPa 0,0 l/m 0 min 0 min 0 W/m 6,4 km/h (2 Bft) 97,87 %
22.01.2022 19:44 5,1 C 4,4 C 3,9 C 99 % 1035,4 hPa 0,0 l/m 0 min 0 min 0 W/m 12,9 km/h (3 Bft) 97,87 %
22.01.2022 19:46 5,1 C 4,4 C 3,9 C 99 % 1035,4 hPa 0,0 l/m 0 min 0 min 0 W/m 12,9 km/h (3 Bft) 97,87 %
22.01.2022 19:48 5,1 C 4,4 C 3,9 C 99 % 1035,4 hPa 0,0 l/m 0 min 0 min 0 W/m 9,7 km/h (2 Bft) 97,83 %
22.01.2022 19:50 5,1 C 4,4 C 3,9 C 99 % 1035,4 hPa 0,0 l/m 0 min 0 min 0 W/m 6,4 km/h (2 Bft) 97,87 %
22.01.2022 19:52 5,1 C 4,4 C 3,9 C 99 % 1035,3 hPa 0,0 l/m 0 min 0 min 0 W/m 6,4 km/h (2 Bft) 97,87 %
22.01.2022 19:54 5,1 C 4,4 C 3,9 C 99 % 1035,3 hPa 0,0 l/m 0 min 0 min 0 W/m 9,7 km/h (2 Bft) 97,87 %
22.01.2022 19:56 5,1 C 4,4 C 3,9 C 99 % 1035,3 hPa 0,0 l/m 0 min 0 min 0 W/m 3,2 km/h (1 Bft) 97,87 %
22.01.2022 19:58 5,1 C 4,4 C 3,9 C 99 % 1035,3 hPa 0,0 l/m 0 min 0 min 0 W/m 6,4 km/h (2 Bft) 100,00 %
22.01.2022 20:00 5,1 C 4,4 C 3,9 C 98 % 1035,3 hPa 0,0 l/m 0 min 0 min 0 W/m 3,2 km/h (1 Bft) 97,87 %
22.01.2022 20:02 5,1 C 4,4 C 3,9 C 98 % 1035,2 hPa 0,0 l/m 0 min 0 min 0 W/m 12,9 km/h (3 Bft) 100,00 %
22.01.2022 20:04 5,1 C 4,4 C 3,9 C 98 % 1035,2 hPa 0,0 l/m 0 min 0 min 0 W/m 0,0 km/h (0 Bft) 97,92 %
22.01.2022 20:06 5,1 C 4,4 C 3,9 C 98 % 1035,2 hPa 0,0 l/m 0 min 0 min 0 W/m 6,4 km/h (2 Bft) 97,87 %
22.01.2022 20:08 5,1 C 4,4 C 3,9 C 98 % 1035,2 hPa 0,0 l/m 0 min 0 min 0 W/m 3,2 km/h (1 Bft) 100,00 %
22.01.2022 20:10 5,0 C 4,4 C 3,9 C 98 % 1035,2 hPa 0,0 l/m 0 min 0 min 0 W/m 6,4 km/h (2 Bft) 100,00 %
22.01.2022 20:12 5,1 C 4,4 C 3,9 C 98 % 1035,2 hPa 0,0 l/m 0 min 0 min 0 W/m 3,2 km/h (1 Bft) 100,00 %
22.01.2022 20:14 5,0 C 4,4 C 3,9 C 98 % 1035,2 hPa 0,0 l/m 0 min 0 min 0 W/m 6,4 km/h (2 Bft) 97,87 %
22.01.2022 20:16 5,0 C 4,4 C 3,9 C 98 % 1035,2 hPa 0,0 l/m 0 min 0 min 0 W/m 6,4 km/h (2 Bft) 100,00 %
22.01.2022 20:18 5,0 C 4,4 C 3,9 C 98 % 1035,2 hPa 0,0 l/m 0 min 0 min 0 W/m 3,2 km/h (1 Bft) 100,00 %
22.01.2022 20:20 5,0 C 4,4 C 3,9 C 98 % 1035,2 hPa 0,0 l/m 0 min 0 min 0 W/m 3,2 km/h (1 Bft) 100,00 %
22.01.2022 20:22 5,0 C 4,4 C 3,9 C 98 % 1035,3 hPa 0,0 l/m 0 min 0 min 0 W/m 3,2 km/h (1 Bft) 97,83 %
22.01.2022 20:24 5,0 C 4,4 C 3,9 C 98 % 1035,2 hPa 0,0 l/m 0 min 0 min 0 W/m 3,2 km/h (1 Bft) 100,00 %
22.01.2022 20:26 5,0 C 4,4 C 3,9 C 98 % 1035,2 hPa 0,0 l/m 0 min 0 min 0 W/m 6,4 km/h (2 Bft) 100,00 %
22.01.2022 20:28 5,0 C 4,4 C 3,9 C 98 % 1035,2 hPa 0,0 l/m 0 min 0 min 0 W/m 6,4 km/h (2 Bft) 100,00 %
22.01.2022 20:30 5,0 C 4,4 C 3,9 C 98 % 1035,3 hPa 0,0 l/m 0 min 0 min 0 W/m 6,4 km/h (2 Bft) 100,00 %
22.01.2022 20:32 5,0 C 4,4 C 3,9 C 98 % 1035,3 hPa 0,0 l/m 0 min 0 min 0 W/m 6,4 km/h (2 Bft) 95,74 %
22.01.2022 20:34 5,0 C 4,4 C 3,9 C 98 % 1035,3 hPa 0,0 l/m 0 min 0 min 0 W/m 6,4 km/h (2 Bft) 100,00 %
22.01.2022 20:36 5,0 C 4,4 C 3,9 C 98 % 1035,2 hPa 0,0 l/m 0 min 0 min 0 W/m 6,4 km/h (2 Bft) 97,87 %
22.01.2022 20:38 5,0 C 4,4 C 3,9 C 98 % 1035,2 hPa 0,0 l/m 0 min 0 min 0 W/m 6,4 km/h (2 Bft) 95,74 %
22.01.2022 20:40 5,0 C 4,4 C 3,9 C 98 % 1035,3 hPa 0,0 l/m 0 min 0 min 0 W/m 3,2 km/h (1 Bft) 95,74 %
22.01.2022 20:42 5,0 C 4,4 C 3,9 C 98 % 1035,3 hPa 0,0 l/m 0 min 0 min 0 W/m 6,4 km/h (2 Bft) 95,74 %
22.01.2022 20:44 5,0 C 4,4 C 3,9 C 98 % 1035,3 hPa 0,0 l/m 0 min 0 min 0 W/m 6,4 km/h (2 Bft) 97,87 %
22.01.2022 20:46 4,9 C 4,4 C 3,9 C 98 % 1035,3 hPa 0,0 l/m 0 min 0 min 0 W/m 6,4 km/h (2 Bft) 89,13 %
22.01.2022 20:48 4,9 C 4,4 C 3,9 C 98 % 1035,3 hPa 0,0 l/m 0 min 0 min 0 W/m 9,7 km/h (2 Bft) 95,74 %
22.01.2022 20:50 4,9 C 4,4 C 3,9 C 98 % 1035,4 hPa 0,0 l/m 0 min 0 min 0 W/m 9,7 km/h (2 Bft) 95,74 %
22.01.2022 20:52 4,9 C 4,4 C 3,9 C 98 % 1035,4 hPa 0,0 l/m 0 min 0 min 0 W/m 0,0 km/h (0 Bft) 95,74 %
22.01.2022 20:54 4,9 C 4,4 C 3,9 C 98 % 1035,4 hPa 0,0 l/m 0 min 0 min 0 W/m 0,0 km/h (0 Bft) 95,74 %
22.01.2022 20:56 4,9 C 4,4 C 3,9 C 98 % 1035,4 hPa 0,0 l/m 0 min 0 min 0 W/m 0,0 km/h (0 Bft) 91,49 %
22.01.2022 20:58 4,9 C 4,4 C 3,9 C 98 % 1035,4 hPa 0,0 l/m 0 min 0 min 0 W/m 6,4 km/h (2 Bft) 93,48 %
22.01.2022 21:00 4,9 C 4,4 C 3,9 C 98 % 1035,4 hPa 0,0 l/m 0 min 0 min 0 W/m 6,4 km/h (2 Bft) 95,74 %
22.01.2022 21:02 4,9 C 4,4 C 3,9 C 98 % 1035,4 hPa 0,0 l/m 0 min 0 min 0 W/m 6,4 km/h (2 Bft) 95,74 %
22.01.2022 21:04 4,9 C 4,4 C 3,9 C 98 % 1035,4 hPa 0,0 l/m 0 min 0 min 0 W/m 3,2 km/h (1 Bft) 95,74 %
22.01.2022 21:06 5,0 C 4,4 C 3,9 C 98 % 1035,5 hPa 0,0 l/m 0 min 0 min 0 W/m 6,4 km/h (2 Bft) 95,74 %
22.01.2022 21:08 5,0 C 4,4 C 3,9 C 98 % 1035,4 hPa 0,0 l/m 0 min 0 min 0 W/m 6,4 km/h (2 Bft) 93,62 %
22.01.2022 21:10 5,1 C 5,0 C 3,9 C 98 % 1035,5 hPa 0,0 l/m 0 min 0 min 0 W/m 6,4 km/h (2 Bft) 93,48 %
22.01.2022 21:12 5,1 C 5,0 C 3,9 C 98 % 1035,5 hPa 0,0 l/m 0 min 0 min 0 W/m 12,9 km/h (3 Bft) 95,74 %
22.01.2022 21:14 5,1 C 5,0 C 3,9 C 98 % 1035,5 hPa 0,0 l/m 0 min 0 min 0 W/m 6,4 km/h (2 Bft) 93,62 %
22.01.2022 21:16 5,1 C 5,0 C 3,9 C 98 % 1035,4 hPa 0,0 l/m 0 min 0 min 0 W/m 9,7 km/h (2 Bft) 95,74 %
22.01.2022 21:18 5,1 C 5,0 C 3,9 C 98 % 1035,4 hPa 0,0 l/m 0 min 0 min 0 W/m 6,4 km/h (2 Bft) 100,00 %
22.01.2022 21:20 5,1 C 5,0 C 3,9 C 98 % 1035,4 hPa 0,0 l/m 0 min 0 min 0 W/m 9,7 km/h (2 Bft) 100,00 %
22.01.2022 21:22 5,1 C 5,0 C 3,9 C 98 % 1035,3 hPa 0,0 l/m 0 min 0 min 0 W/m 3,2 km/h (1 Bft) 97,83 %
22.01.2022 21:24 5,2 C 5,0 C 3,9 C 98 % 1035,3 hPa 0,0 l/m 0 min 0 min 0 W/m 6,4 km/h (2 Bft) 100,00 %
22.01.2022 21:26 5,2 C 5,0 C 3,9 C 98 % 1035,3 hPa 0,0 l/m 0 min 0 min 0 W/m 6,4 km/h (2 Bft) 100,00 %
22.01.2022 21:28 5,2 C 5,0 C 3,9 C 98 % 1035,3 hPa 0,0 l/m 0 min 0 min 0 W/m 3,2 km/h (1 Bft) 100,00 %
22.01.2022 21:30 5,2 C 5,0 C 3,9 C 97 % 1035,3 hPa 0,0 l/m 0 min 0 min 0 W/m 3,2 km/h (1 Bft) 100,00 %
22.01.2022 21:32 5,2 C 5,0 C 3,9 C 97 % 1035,3 hPa 0,0 l/m 0 min 0 min 0 W/m 6,4 km/h (2 Bft) 100,00 %
22.01.2022 21:34 5,2 C 5,0 C 3,9 C 97 % 1035,3 hPa 0,0 l/m 0 min 0 min 0 W/m 6,4 km/h (2 Bft) 97,83 %
22.01.2022 21:36 5,2 C 4,4 C 3,9 C 97 % 1035,3 hPa 0,0 l/m 0 min 0 min 0 W/m 3,2 km/h (1 Bft) 100,00 %
22.01.2022 21:38 5,2 C 4,4 C 3,9 C 97 % 1035,3 hPa 0,0 l/m 0 min 0 min 0 W/m 3,2 km/h (1 Bft) 97,87 %
22.01.2022 21:40 5,2 C 4,4 C 3,9 C 97 % 1035,3 hPa 0,0 l/m 0 min 0 min 0 W/m 6,4 km/h (2 Bft) 100,00 %
22.01.2022 21:42 5,2 C 4,4 C 3,9 C 97 % 1035,3 hPa 0,0 l/m 0 min 0 min 0 W/m 6,4 km/h (2 Bft) 100,00 %
22.01.2022 21:44 5,2 C 4,4 C 3,9 C 97 % 1035,3 hPa 0,0 l/m 0 min 0 min 0 W/m 3,2 km/h (1 Bft) 100,00 %
22.01.2022 21:46 5,1 C 4,4 C 3,9 C 97 % 1035,3 hPa 0,0 l/m 0 min 0 min 0 W/m 3,2 km/h (1 Bft) 100,00 %
22.01.2022 21:48 5,1 C 4,4 C 3,9 C 97 % 1035,3 hPa 0,0 l/m 0 min 0 min 0 W/m 3,2 km/h (1 Bft) 100,00 %
22.01.2022 21:50 5,1 C 4,4 C 3,9 C 97 % 1035,3 hPa 0,0 l/m 0 min 0 min 0 W/m 3,2 km/h (1 Bft) 100,00 %
22.01.2022 21:52 5,1 C 4,4 C 3,9 C 97 % 1035,3 hPa 0,0 l/m 0 min 0 min 0 W/m 3,2 km/h (1 Bft) 100,00 %
22.01.2022 21:54 5,1 C 4,4 C 3,9 C 97 % 1035,3 hPa 0,0 l/m 0 min 0 min 0 W/m 6,4 km/h (2 Bft) 100,00 %
22.01.2022 21:56 5,1 C 4,4 C 3,9 C 97 % 1035,4 hPa 0,0 l/m 0 min 0 min 0 W/m 6,4 km/h (2 Bft) 100,00 %
22.01.2022 21:58 5,1 C 4,4 C 3,9 C 97 % 1035,4 hPa 0,0 l/m 0 min 0 min 0 W/m 3,2 km/h (1 Bft) 100,00 %
22.01.2022 22:00 5,1 C 4,4 C 3,9 C 97 % 1035,4 hPa 0,0 l/m 0 min 0 min 0 W/m 3,2 km/h (1 Bft) 100,00 %
22.01.2022 22:02 5,1 C 4,4 C 3,9 C 97 % 1035,3 hPa 0,0 l/m 0 min 0 min 0 W/m 6,4 km/h (2 Bft) 97,83 %
22.01.2022 22:04 5,1 C 4,4 C 3,9 C 97 % 1035,3 hPa 0,0 l/m 0 min 0 min 0 W/m 3,2 km/h (1 Bft) 100,00 %
22.01.2022 22:06 5,1 C 4,4 C 3,9 C 97 % 1035,4 hPa 0,0 l/m 0 min 0 min 0 W/m 6,4 km/h (2 Bft) 95,74 %
22.01.2022 22:08 5,1 C 4,4 C 3,9 C 97 % 1035,4 hPa 0,0 l/m 0 min 0 min 0 W/m 3,2 km/h (1 Bft) 97,87 %
22.01.2022 22:10 5,1 C 4,4 C 3,9 C 97 % 1035,4 hPa 0,0 l/m 0 min 0 min 0 W/m 3,2 km/h (1 Bft) 97,87 %
22.01.2022 22:12 5,1 C 4,4 C 3,9 C 97 % 1035,4 hPa 0,0 l/m 0 min 0 min 0 W/m 9,7 km/h (2 Bft) 97,87 %
22.01.2022 22:14 5,1 C 4,4 C 3,9 C 97 % 1035,3 hPa 0,0 l/m 0 min 0 min 0 W/m 3,2 km/h (1 Bft) 95,65 %
22.01.2022 22:16 5,1 C 4,4 C 3,9 C 97 % 1035,3 hPa 0,0 l/m 0 min 0 min 0 W/m 3,2 km/h (1 Bft) 97,87 %
22.01.2022 22:18 5,1 C 4,4 C 3,9 C 97 % 1035,3 hPa 0,0 l/m 0 min 0 min 0 W/m 0,0 km/h (0 Bft) 97,87 %
22.01.2022 22:20 5,1 C 4,4 C 3,9 C 97 % 1035,4 hPa 0,0 l/m 0 min 0 min 0 W/m 0,0 km/h (0 Bft) 93,62 %
22.01.2022 22:22 5,1 C 4,4 C 3,9 C 97 % 1035,4 hPa 0,0 l/m 0 min 0 min 0 W/m 6,4 km/h (2 Bft) 97,87 %
22.01.2022 22:24 5,1 C 4,4 C 3,9 C 97 % 1035,4 hPa 0,0 l/m 0 min 0 min 0 W/m 6,4 km/h (2 Bft) 97,83 %
22.01.2022 22:26 5,1 C 4,4 C 3,9 C 97 % 1035,4 hPa 0,0 l/m 0 min 0 min 0 W/m 6,4 km/h (2 Bft) 95,74 %
22.01.2022 22:28 5,1 C 4,4 C 3,9 C 97 % 1035,4 hPa 0,0 l/m 0 min 0 min 0 W/m 6,4 km/h (2 Bft) 97,87 %
22.01.2022 22:30 5,0 C 4,4 C 3,9 C 97 % 1035,4 hPa 0,0 l/m 0 min 0 min 0 W/m 9,7 km/h (2 Bft) 97,87 %
22.01.2022 22:32 5,0 C 4,4 C 3,9 C 96 % 1035,4 hPa 0,0 l/m 0 min 0 min 0 W/m 12,9 km/h (3 Bft) 97,87 %
22.01.2022 22:34 5,0 C 4,4 C 3,9 C 97 % 1035,4 hPa 0,0 l/m 0 min 0 min 0 W/m 9,7 km/h (2 Bft) 97,87 %
22.01.2022 22:36 5,0 C 4,4 C 3,9 C 97 % 1035,3 hPa 0,0 l/m 0 min 0 min 0 W/m 6,4 km/h (2 Bft) 95,65 %
22.01.2022 22:38 5,0 C 4,4 C 3,9 C 97 % 1035,4 hPa 0,0 l/m 0 min 0 min 0 W/m 6,4 km/h (2 Bft) 93,62 %
22.01.2022 22:40 5,0 C 4,4 C 3,9 C 96 % 1035,4 hPa 0,0 l/m 0 min 0 min 0 W/m 6,4 km/h (2 Bft) 95,74 %
22.01.2022 22:42 5,0 C 4,4 C 3,9 C 96 % 1035,4 hPa 0,0 l/m 0 min 0 min 0 W/m 3,2 km/h (1 Bft) 91,49 %
22.01.2022 22:44 5,0 C 4,4 C 3,9 C 96 % 1035,4 hPa 0,0 l/m 0 min 0 min 0 W/m 6,4 km/h (2 Bft) 95,74 %
22.01.2022 22:46 4,9 C 4,4 C 3,9 C 96 % 1035,4 hPa 0,0 l/m 0 min 0 min 0 W/m 3,2 km/h (1 Bft) 95,74 %
22.01.2022 22:48 4,9 C 4,4 C 3,9 C 96 % 1035,5 hPa 0,0 l/m 0 min 0 min 0 W/m 6,4 km/h (2 Bft) 93,48 %
22.01.2022 22:50 4,9 C 4,4 C 3,3 C 96 % 1035,5 hPa 0,0 l/m 0 min 0 min 0 W/m 3,2 km/h (1 Bft) 95,74 %
22.01.2022 22:52 4,9 C 4,4 C 3,3 C 96 % 1035,5 hPa 0,0 l/m 0 min 0 min 0 W/m 3,2 km/h (1 Bft) 93,62 %
22.01.2022 22:54 4,9 C 4,4 C 3,3 C 96 % 1035,4 hPa 0,0 l/m 0 min 0 min 0 W/m 3,2 km/h (1 Bft) 93,62 %
22.01.2022 22:56 4,9 C 4,4 C 3,3 C 96 % 1035,4 hPa 0,0 l/m 0 min 0 min 0 W/m 3,2 km/h (1 Bft) 95,74 %
22.01.2022 22:58 4,9 C 4,4 C 3,3 C 96 % 1035,4 hPa 0,0 l/m 0 min 0 min 0 W/m 3,2 km/h (1 Bft) 97,87 %
22.01.2022 23:00 4,9 C 4,4 C 3,3 C 96 % 1035,4 hPa 0,0 l/m 0 min 0 min 0 W/m 9,7 km/h (2 Bft) 93,48 %
22.01.2022 23:02 4,9 C 4,4 C 3,3 C 96 % 1035,4 hPa 0,0 l/m 0 min 0 min 0 W/m 6,4 km/h (2 Bft) 93,62 %
22.01.2022 23:04 4,9 C 4,4 C 3,3 C 96 % 1035,4 hPa 0,0 l/m 0 min 0 min 0 W/m 6,4 km/h (2 Bft) 95,74 %
22.01.2022 23:06 4,9 C 4,4 C 3,3 C 96 % 1035,4 hPa 0,0 l/m 0 min 0 min 0 W/m 6,4 km/h (2 Bft) 97,87 %
22.01.2022 23:08 4,9 C 4,4 C 3,3 C 96 % 1035,3 hPa 0,0 l/m 0 min 0 min 0 W/m 6,4 km/h (2 Bft) 95,74 %
22.01.2022 23:10 4,9 C 4,4 C 3,3 C 96 % 1035,3 hPa 0,0 l/m 0 min 0 min 0 W/m 3,2 km/h (1 Bft) 97,87 %
22.01.2022 23:12 4,9 C 4,4 C 3,3 C 96 % 1035,4 hPa 0,0 l/m 0 min 0 min 0 W/m 9,7 km/h (2 Bft) 95,65 %
22.01.2022 23:14 4,8 C 4,4 C 3,3 C 96 % 1035,5 hPa 0,0 l/m 0 min 0 min 0 W/m 3,2 km/h (1 Bft) 97,87 %
22.01.2022 23:16 4,8 C 4,4 C 3,3 C 96 % 1035,5 hPa 0,0 l/m 0 min 0 min 0 W/m 6,4 km/h (2 Bft) 95,74 %
22.01.2022 23:18 4,8 C 4,4 C 3,3 C 96 % 1035,5 hPa 0,0 l/m 0 min 0 min 0 W/m 6,4 km/h (2 Bft) 97,87 %
22.01.2022 23:20 4,8 C 4,4 C 3,3 C 96 % 1035,4 hPa 0,0 l/m 0 min 0 min 0 W/m 3,2 km/h (1 Bft) 97,87 %
22.01.2022 23:22 4,8 C 4,4 C 3,3 C 96 % 1035,4 hPa 0,0 l/m 0 min 0 min 0 W/m 3,2 km/h (1 Bft) 93,62 %
22.01.2022 23:24 4,8 C 4,4 C 3,3 C 96 % 1035,5 hPa 0,0 l/m 0 min 0 min 0 W/m 3,2 km/h (1 Bft) 97,83 %
22.01.2022 23:26 4,8 C 4,4 C 3,3 C 96 % 1035,5 hPa 0,0 l/m 0 min 0 min 0 W/m 3,2 km/h (1 Bft) 97,87 %
22.01.2022 23:28 4,8 C 4,4 C 3,3 C 96 % 1035,5 hPa 0,0 l/m 0 min 0 min 0 W/m 3,2 km/h (1 Bft) 97,87 %
22.01.2022 23:30 4,8 C 4,4 C 3,3 C 96 % 1035,5 hPa 0,0 l/m 0 min 0 min 0 W/m 6,4 km/h (2 Bft) 97,87 %
22.01.2022 23:32 4,8 C 4,4 C 3,3 C 96 % 1035,5 hPa 0,0 l/m 0 min 0 min 0 W/m 12,9 km/h (3 Bft) 97,87 %
22.01.2022 23:34 4,8 C 4,4 C 3,3 C 96 % 1035,5 hPa 0,0 l/m 0 min 0 min 0 W/m 3,2 km/h (1 Bft) 97,87 %
22.01.2022 23:36 4,8 C 4,4 C 3,3 C 96 % 1035,4 hPa 0,0 l/m 0 min 0 min 0 W/m 3,2 km/h (1 Bft) 95,65 %
22.01.2022 23:38 4,8 C 4,4 C 3,3 C 96 % 1035,4 hPa 0,0 l/m 0 min 0 min 0 W/m 6,4 km/h (2 Bft) 97,87 %
22.01.2022 23:40 4,8 C 4,4 C 3,3 C 96 % 1035,4 hPa 0,0 l/m 0 min 0 min 0 W/m 9,7 km/h (2 Bft) 95,74 %
22.01.2022 23:42 4,8 C 4,4 C 3,3 C 96 % 1035,5 hPa 0,0 l/m 0 min 0 min 0 W/m 6,4 km/h (2 Bft) 97,87 %
22.01.2022 23:44 4,8 C 4,4 C 3,3 C 96 % 1035,4 hPa 0,0 l/m 0 min 0 min 0 W/m 6,4 km/h (2 Bft) 97,87 %
22.01.2022 23:46 4,8 C 4,4 C 3,3 C 96 % 1035,4 hPa 0,0 l/m 0 min 0 min 0 W/m 6,4 km/h (2 Bft) 97,87 %
22.01.2022 23:48 4,8 C 4,4 C 3,3 C 96 % 1035,5 hPa 0,0 l/m 0 min 0 min 0 W/m 3,2 km/h (1 Bft) 97,83 %
22.01.2022 23:50 4,8 C 4,4 C 3,3 C 96 % 1035,5 hPa 0,0 l/m 0 min 0 min 0 W/m 6,4 km/h (2 Bft) 97,87 %
22.01.2022 23:52 4,8 C 4,4 C 3,3 C 96 % 1035,5 hPa 0,0 l/m 0 min 0 min 0 W/m 3,2 km/h (1 Bft) 95,74 %
22.01.2022 23:54 4,8 C 4,4 C 3,3 C 96 % 1035,5 hPa 0,0 l/m 0 min 0 min 0 W/m 6,4 km/h (2 Bft) 100,00 %
22.01.2022 23:56 4,8 C 4,4 C 3,3 C 96 % 1035,5 hPa 0,0 l/m 0 min 0 min 0 W/m 3,2 km/h (1 Bft) 100,00 %
22.01.2022 23:58 4,8 C 4,4 C 3,3 C 96 % 1035,5 hPa 0,0 l/m 0 min 0 min 0 W/m 0,0 km/h (0 Bft) 100,00 %
_ Min-Zeit 02:22 02:14 02:20 22:32 00:54 - - - - 03:24 03:46
Minimum _ 3,6 C 2,8 C 1,7 C 96 % 1033,1 hPa - - - - 0,0 km/h (0 Bft) 53,49 %
_ Max-Zeit 12:58 11:24 11:18 08:58 21:06 08:20 11:24 02:16 11:24 00:38 00:24
Maximum _ 5,7 C 6,1 C 4,4 C 99 % 1035,5 hPa 0,2 l/m 2 min 2 min 191 W/m 22,5 km/h
NO (4 Bft)
100,00 %
Durchschnitt _ 4,7 C 4,3 C 3,4 C 98 % 1034,3 hPa #0,4 l/m #2 min. #12 min. 35 W/m 8,4 km/h (2 Bft) 97,38 %
© 2022 W. Hausmann